<?xml version="1.0" encoding="UTF-8" standalone="no" ?>
<gpx xmlns="http://www.topografix.com/GPX/1/1" xmlns:xsi="http://www.w3.org/2001/XMLSchema-instance" xsi:schemaLocation="http://www.topografix.com/GPX/1/1 http://www.topografix.com/GPX/1/1/gpx.xsd" version="1.1" creator="VisuGPX - https://www.visugpx.com">
  <metadata>
    <name>83-M-Correns</name>
    <desc><![CDATA[83-M-Correns : vallon Obscur]]></desc>
  </metadata>
  <trk>
    <name><![CDATA[2014-03-26-correns]]></name>
    <trkseg>
      <trkpt lat="43.49672" lon="6.05557">
        <ele>171.9</ele>
        <time>2014-03-26T13:10:41Z</time>
      </trkpt>
      <trkpt lat="43.49664" lon="6.05561">
        <ele>171.5</ele>
        <time>2014-03-26T13:11:39Z</time>
      </trkpt>
      <trkpt lat="43.49664" lon="6.05562">
        <ele>171.6</ele>
        <time>2014-03-26T13:11:40Z</time>
      </trkpt>
      <trkpt lat="43.49663" lon="6.05549">
        <ele>172.3</ele>
        <time>2014-03-26T13:14:17Z</time>
      </trkpt>
      <trkpt lat="43.49668" lon="6.05527">
        <ele>171.5</ele>
        <time>2014-03-26T13:15:23Z</time>
      </trkpt>
      <trkpt lat="43.49669" lon="6.05526">
        <ele>171.5</ele>
        <time>2014-03-26T13:15:24Z</time>
      </trkpt>
      <trkpt lat="43.49685" lon="6.05524">
        <ele>171.6</ele>
        <time>2014-03-26T13:16:25Z</time>
      </trkpt>
      <trkpt lat="43.49686" lon="6.05524">
        <ele>171.5</ele>
        <time>2014-03-26T13:16:26Z</time>
      </trkpt>
      <trkpt lat="43.49685" lon="6.05524">
        <ele>171.5</ele>
        <time>2014-03-26T13:17:13Z</time>
      </trkpt>
      <trkpt lat="43.49688" lon="6.05535">
        <ele>171.3</ele>
        <time>2014-03-26T13:18:48Z</time>
      </trkpt>
      <trkpt lat="43.49689" lon="6.05535">
        <ele>171.5</ele>
        <time>2014-03-26T13:18:49Z</time>
      </trkpt>
      <trkpt lat="43.49678" lon="6.05533">
        <ele>171.6</ele>
        <time>2014-03-26T13:20:46Z</time>
      </trkpt>
      <trkpt lat="43.49689" lon="6.05516">
        <ele>173.8</ele>
        <time>2014-03-26T13:21:03Z</time>
      </trkpt>
      <trkpt lat="43.49696" lon="6.05509">
        <ele>174.2</ele>
        <time>2014-03-26T13:21:10Z</time>
      </trkpt>
      <trkpt lat="43.49703" lon="6.05505">
        <ele>172.8</ele>
        <time>2014-03-26T13:21:18Z</time>
      </trkpt>
      <trkpt lat="43.49711" lon="6.05499">
        <ele>173.7</ele>
        <time>2014-03-26T13:21:28Z</time>
      </trkpt>
      <trkpt lat="43.4972" lon="6.05502">
        <ele>174.4</ele>
        <time>2014-03-26T13:21:53Z</time>
      </trkpt>
      <trkpt lat="43.4972" lon="6.05502">
        <ele>174.7</ele>
        <time>2014-03-26T13:21:54Z</time>
      </trkpt>
      <trkpt lat="43.49737" lon="6.055">
        <ele>176.2</ele>
        <time>2014-03-26T13:22:10Z</time>
      </trkpt>
      <trkpt lat="43.49745" lon="6.05498">
        <ele>178.4</ele>
        <time>2014-03-26T13:22:26Z</time>
      </trkpt>
      <trkpt lat="43.49753" lon="6.05493">
        <ele>179.3</ele>
        <time>2014-03-26T13:22:36Z</time>
      </trkpt>
      <trkpt lat="43.49761" lon="6.0549">
        <ele>179.3</ele>
        <time>2014-03-26T13:22:46Z</time>
      </trkpt>
      <trkpt lat="43.49768" lon="6.05485">
        <ele>179.9</ele>
        <time>2014-03-26T13:22:53Z</time>
      </trkpt>
      <trkpt lat="43.49775" lon="6.05477">
        <ele>180.3</ele>
        <time>2014-03-26T13:22:58Z</time>
      </trkpt>
      <trkpt lat="43.49776" lon="6.05476">
        <ele>180.4</ele>
        <time>2014-03-26T13:22:59Z</time>
      </trkpt>
      <trkpt lat="43.49792" lon="6.05468">
        <ele>185.1</ele>
        <time>2014-03-26T13:23:27Z</time>
      </trkpt>
      <trkpt lat="43.49797" lon="6.0546">
        <ele>187.1</ele>
        <time>2014-03-26T13:23:46Z</time>
      </trkpt>
      <trkpt lat="43.49803" lon="6.05453">
        <ele>187</ele>
        <time>2014-03-26T13:23:56Z</time>
      </trkpt>
      <trkpt lat="43.49809" lon="6.05445">
        <ele>186.6</ele>
        <time>2014-03-26T13:24:04Z</time>
      </trkpt>
      <trkpt lat="43.4981" lon="6.05445">
        <ele>186.8</ele>
        <time>2014-03-26T13:24:05Z</time>
      </trkpt>
      <trkpt lat="43.49823" lon="6.05439">
        <ele>187</ele>
        <time>2014-03-26T13:24:15Z</time>
      </trkpt>
      <trkpt lat="43.49831" lon="6.05437">
        <ele>187.5</ele>
        <time>2014-03-26T13:24:25Z</time>
      </trkpt>
      <trkpt lat="43.49838" lon="6.0543">
        <ele>189.5</ele>
        <time>2014-03-26T13:24:49Z</time>
      </trkpt>
      <trkpt lat="43.49845" lon="6.05426">
        <ele>190.2</ele>
        <time>2014-03-26T13:24:53Z</time>
      </trkpt>
      <trkpt lat="43.49853" lon="6.05421">
        <ele>190.8</ele>
        <time>2014-03-26T13:24:57Z</time>
      </trkpt>
      <trkpt lat="43.49861" lon="6.05417">
        <ele>191</ele>
        <time>2014-03-26T13:25:04Z</time>
      </trkpt>
      <trkpt lat="43.49869" lon="6.05411">
        <ele>193.8</ele>
        <time>2014-03-26T13:25:25Z</time>
      </trkpt>
      <trkpt lat="43.4987" lon="6.05411">
        <ele>193.9</ele>
        <time>2014-03-26T13:25:26Z</time>
      </trkpt>
      <trkpt lat="43.49882" lon="6.05396">
        <ele>194.3</ele>
        <time>2014-03-26T13:25:43Z</time>
      </trkpt>
      <trkpt lat="43.49889" lon="6.0539">
        <ele>193.9</ele>
        <time>2014-03-26T13:25:51Z</time>
      </trkpt>
      <trkpt lat="43.49897" lon="6.05387">
        <ele>195.2</ele>
        <time>2014-03-26T13:26:02Z</time>
      </trkpt>
      <trkpt lat="43.49906" lon="6.0539">
        <ele>196.4</ele>
        <time>2014-03-26T13:26:20Z</time>
      </trkpt>
      <trkpt lat="43.49913" lon="6.05384">
        <ele>196.1</ele>
        <time>2014-03-26T13:26:27Z</time>
      </trkpt>
      <trkpt lat="43.49914" lon="6.05383">
        <ele>196.4</ele>
        <time>2014-03-26T13:26:28Z</time>
      </trkpt>
      <trkpt lat="43.49927" lon="6.05372">
        <ele>198.9</ele>
        <time>2014-03-26T13:26:46Z</time>
      </trkpt>
      <trkpt lat="43.49935" lon="6.05366">
        <ele>200.3</ele>
        <time>2014-03-26T13:26:58Z</time>
      </trkpt>
      <trkpt lat="43.49942" lon="6.0536">
        <ele>202.5</ele>
        <time>2014-03-26T13:27:23Z</time>
      </trkpt>
      <trkpt lat="43.49951" lon="6.05356">
        <ele>203.5</ele>
        <time>2014-03-26T13:27:34Z</time>
      </trkpt>
      <trkpt lat="43.49951" lon="6.05356">
        <ele>203.8</ele>
        <time>2014-03-26T13:27:35Z</time>
      </trkpt>
      <trkpt lat="43.49965" lon="6.05345">
        <ele>205.9</ele>
        <time>2014-03-26T13:27:59Z</time>
      </trkpt>
      <trkpt lat="43.49974" lon="6.05345">
        <ele>206.9</ele>
        <time>2014-03-26T13:28:09Z</time>
      </trkpt>
      <trkpt lat="43.49982" lon="6.0534">
        <ele>207.8</ele>
        <time>2014-03-26T13:28:24Z</time>
      </trkpt>
      <trkpt lat="43.49988" lon="6.05333">
        <ele>208.8</ele>
        <time>2014-03-26T13:28:32Z</time>
      </trkpt>
      <trkpt lat="43.49995" lon="6.05324">
        <ele>210</ele>
        <time>2014-03-26T13:28:50Z</time>
      </trkpt>
      <trkpt lat="43.49995" lon="6.05324">
        <ele>209.7</ele>
        <time>2014-03-26T13:28:51Z</time>
      </trkpt>
      <trkpt lat="43.50007" lon="6.05309">
        <ele>212.8</ele>
        <time>2014-03-26T13:29:13Z</time>
      </trkpt>
      <trkpt lat="43.50013" lon="6.053">
        <ele>214.2</ele>
        <time>2014-03-26T13:29:22Z</time>
      </trkpt>
      <trkpt lat="43.50018" lon="6.05291">
        <ele>214.5</ele>
        <time>2014-03-26T13:29:29Z</time>
      </trkpt>
      <trkpt lat="43.50024" lon="6.05283">
        <ele>215.5</ele>
        <time>2014-03-26T13:29:42Z</time>
      </trkpt>
      <trkpt lat="43.5003" lon="6.05274">
        <ele>216.9</ele>
        <time>2014-03-26T13:29:54Z</time>
      </trkpt>
      <trkpt lat="43.50031" lon="6.05274">
        <ele>216.7</ele>
        <time>2014-03-26T13:29:55Z</time>
      </trkpt>
      <trkpt lat="43.50045" lon="6.05262">
        <ele>220</ele>
        <time>2014-03-26T13:30:20Z</time>
      </trkpt>
      <trkpt lat="43.50052" lon="6.05255">
        <ele>221.5</ele>
        <time>2014-03-26T13:30:27Z</time>
      </trkpt>
      <trkpt lat="43.50058" lon="6.05245">
        <ele>223.2</ele>
        <time>2014-03-26T13:30:37Z</time>
      </trkpt>
      <trkpt lat="43.50066" lon="6.05244">
        <ele>223.9</ele>
        <time>2014-03-26T13:30:49Z</time>
      </trkpt>
      <trkpt lat="43.50074" lon="6.0524">
        <ele>226.7</ele>
        <time>2014-03-26T13:30:59Z</time>
      </trkpt>
      <trkpt lat="43.50075" lon="6.0524">
        <ele>227.1</ele>
        <time>2014-03-26T13:31:00Z</time>
      </trkpt>
      <trkpt lat="43.5009" lon="6.05232">
        <ele>228.2</ele>
        <time>2014-03-26T13:31:24Z</time>
      </trkpt>
      <trkpt lat="43.50098" lon="6.05226">
        <ele>229.2</ele>
        <time>2014-03-26T13:31:34Z</time>
      </trkpt>
      <trkpt lat="43.50105" lon="6.05222">
        <ele>229.4</ele>
        <time>2014-03-26T13:31:40Z</time>
      </trkpt>
      <trkpt lat="43.50114" lon="6.05218">
        <ele>231.1</ele>
        <time>2014-03-26T13:31:55Z</time>
      </trkpt>
      <trkpt lat="43.50121" lon="6.05216">
        <ele>231.6</ele>
        <time>2014-03-26T13:32:06Z</time>
      </trkpt>
      <trkpt lat="43.50122" lon="6.05216">
        <ele>231.8</ele>
        <time>2014-03-26T13:32:07Z</time>
      </trkpt>
      <trkpt lat="43.50138" lon="6.05209">
        <ele>234.7</ele>
        <time>2014-03-26T13:32:25Z</time>
      </trkpt>
      <trkpt lat="43.50145" lon="6.05205">
        <ele>235.8</ele>
        <time>2014-03-26T13:32:32Z</time>
      </trkpt>
      <trkpt lat="43.50153" lon="6.05201">
        <ele>235.2</ele>
        <time>2014-03-26T13:32:40Z</time>
      </trkpt>
      <trkpt lat="43.5016" lon="6.05194">
        <ele>237.4</ele>
        <time>2014-03-26T13:32:52Z</time>
      </trkpt>
      <trkpt lat="43.50169" lon="6.05191">
        <ele>238.4</ele>
        <time>2014-03-26T13:33:06Z</time>
      </trkpt>
      <trkpt lat="43.50176" lon="6.05185">
        <ele>240.2</ele>
        <time>2014-03-26T13:33:22Z</time>
      </trkpt>
      <trkpt lat="43.50177" lon="6.05184">
        <ele>240.2</ele>
        <time>2014-03-26T13:33:23Z</time>
      </trkpt>
      <trkpt lat="43.50191" lon="6.05175">
        <ele>241.8</ele>
        <time>2014-03-26T13:33:41Z</time>
      </trkpt>
      <trkpt lat="43.50197" lon="6.05167">
        <ele>242.4</ele>
        <time>2014-03-26T13:33:47Z</time>
      </trkpt>
      <trkpt lat="43.50203" lon="6.0516">
        <ele>243.1</ele>
        <time>2014-03-26T13:33:54Z</time>
      </trkpt>
      <trkpt lat="43.5021" lon="6.05154">
        <ele>243.1</ele>
        <time>2014-03-26T13:34:02Z</time>
      </trkpt>
      <trkpt lat="43.50219" lon="6.05154">
        <ele>244.4</ele>
        <time>2014-03-26T13:34:11Z</time>
      </trkpt>
      <trkpt lat="43.50227" lon="6.05157">
        <ele>245.4</ele>
        <time>2014-03-26T13:34:21Z</time>
      </trkpt>
      <trkpt lat="43.50236" lon="6.05159">
        <ele>246.1</ele>
        <time>2014-03-26T13:34:28Z</time>
      </trkpt>
      <trkpt lat="43.50236" lon="6.0516">
        <ele>246.4</ele>
        <time>2014-03-26T13:34:29Z</time>
      </trkpt>
      <trkpt lat="43.50251" lon="6.05155">
        <ele>247</ele>
        <time>2014-03-26T13:34:46Z</time>
      </trkpt>
      <trkpt lat="43.5026" lon="6.05155">
        <ele>246.8</ele>
        <time>2014-03-26T13:34:54Z</time>
      </trkpt>
      <trkpt lat="43.50268" lon="6.05153">
        <ele>247.4</ele>
        <time>2014-03-26T13:35:04Z</time>
      </trkpt>
      <trkpt lat="43.50276" lon="6.0515">
        <ele>247.7</ele>
        <time>2014-03-26T13:35:14Z</time>
      </trkpt>
      <trkpt lat="43.50284" lon="6.05145">
        <ele>248</ele>
        <time>2014-03-26T13:35:29Z</time>
      </trkpt>
      <trkpt lat="43.50285" lon="6.05144">
        <ele>247.8</ele>
        <time>2014-03-26T13:35:30Z</time>
      </trkpt>
      <trkpt lat="43.50299" lon="6.05134">
        <ele>249.7</ele>
        <time>2014-03-26T13:35:50Z</time>
      </trkpt>
      <trkpt lat="43.50304" lon="6.05127">
        <ele>250.6</ele>
        <time>2014-03-26T13:35:57Z</time>
      </trkpt>
      <trkpt lat="43.50309" lon="6.0512">
        <ele>250.7</ele>
        <time>2014-03-26T13:36:02Z</time>
      </trkpt>
      <trkpt lat="43.50316" lon="6.05112">
        <ele>251.9</ele>
        <time>2014-03-26T13:36:07Z</time>
      </trkpt>
      <trkpt lat="43.50323" lon="6.05105">
        <ele>252.2</ele>
        <time>2014-03-26T13:36:13Z</time>
      </trkpt>
      <trkpt lat="43.5033" lon="6.05098">
        <ele>253.7</ele>
        <time>2014-03-26T13:36:21Z</time>
      </trkpt>
      <trkpt lat="43.50339" lon="6.05096">
        <ele>254.7</ele>
        <time>2014-03-26T13:36:29Z</time>
      </trkpt>
      <trkpt lat="43.50347" lon="6.05099">
        <ele>255.7</ele>
        <time>2014-03-26T13:36:37Z</time>
      </trkpt>
      <trkpt lat="43.50347" lon="6.05101">
        <ele>255.8</ele>
        <time>2014-03-26T13:36:38Z</time>
      </trkpt>
      <trkpt lat="43.5035" lon="6.05122">
        <ele>258.6</ele>
        <time>2014-03-26T13:36:57Z</time>
      </trkpt>
      <trkpt lat="43.50346" lon="6.05133">
        <ele>259.6</ele>
        <time>2014-03-26T13:37:08Z</time>
      </trkpt>
      <trkpt lat="43.50352" lon="6.05124">
        <ele>266</ele>
        <time>2014-03-26T13:37:59Z</time>
      </trkpt>
      <trkpt lat="43.50352" lon="6.05123">
        <ele>266.1</ele>
        <time>2014-03-26T13:38:00Z</time>
      </trkpt>
      <trkpt lat="43.50368" lon="6.05115">
        <ele>267.2</ele>
        <time>2014-03-26T13:38:17Z</time>
      </trkpt>
      <trkpt lat="43.50376" lon="6.05118">
        <ele>267.6</ele>
        <time>2014-03-26T13:38:25Z</time>
      </trkpt>
      <trkpt lat="43.50385" lon="6.05116">
        <ele>269.9</ele>
        <time>2014-03-26T13:38:36Z</time>
      </trkpt>
      <trkpt lat="43.50392" lon="6.05109">
        <ele>271.1</ele>
        <time>2014-03-26T13:38:48Z</time>
      </trkpt>
      <trkpt lat="43.504" lon="6.05108">
        <ele>273.4</ele>
        <time>2014-03-26T13:38:58Z</time>
      </trkpt>
      <trkpt lat="43.50409" lon="6.05106">
        <ele>274.5</ele>
        <time>2014-03-26T13:39:10Z</time>
      </trkpt>
      <trkpt lat="43.50409" lon="6.05106">
        <ele>274.3</ele>
        <time>2014-03-26T13:39:11Z</time>
      </trkpt>
      <trkpt lat="43.50425" lon="6.0511">
        <ele>276.8</ele>
        <time>2014-03-26T13:39:27Z</time>
      </trkpt>
      <trkpt lat="43.50433" lon="6.05112">
        <ele>278.5</ele>
        <time>2014-03-26T13:39:37Z</time>
      </trkpt>
      <trkpt lat="43.50442" lon="6.05111">
        <ele>278.9</ele>
        <time>2014-03-26T13:39:49Z</time>
      </trkpt>
      <trkpt lat="43.5045" lon="6.05107">
        <ele>281.3</ele>
        <time>2014-03-26T13:40:00Z</time>
      </trkpt>
      <trkpt lat="43.50459" lon="6.05106">
        <ele>282.4</ele>
        <time>2014-03-26T13:40:10Z</time>
      </trkpt>
      <trkpt lat="43.50467" lon="6.05101">
        <ele>283.9</ele>
        <time>2014-03-26T13:40:21Z</time>
      </trkpt>
      <trkpt lat="43.50468" lon="6.05102">
        <ele>283.7</ele>
        <time>2014-03-26T13:40:22Z</time>
      </trkpt>
      <trkpt lat="43.50484" lon="6.05103">
        <ele>287.1</ele>
        <time>2014-03-26T13:40:41Z</time>
      </trkpt>
      <trkpt lat="43.50492" lon="6.05103">
        <ele>288.3</ele>
        <time>2014-03-26T13:40:53Z</time>
      </trkpt>
      <trkpt lat="43.505" lon="6.05102">
        <ele>289.7</ele>
        <time>2014-03-26T13:41:04Z</time>
      </trkpt>
      <trkpt lat="43.50509" lon="6.051">
        <ele>292.4</ele>
        <time>2014-03-26T13:41:18Z</time>
      </trkpt>
      <trkpt lat="43.50517" lon="6.05105">
        <ele>293.4</ele>
        <time>2014-03-26T13:41:27Z</time>
      </trkpt>
      <trkpt lat="43.50518" lon="6.05106">
        <ele>293.7</ele>
        <time>2014-03-26T13:41:28Z</time>
      </trkpt>
      <trkpt lat="43.50533" lon="6.05114">
        <ele>295.9</ele>
        <time>2014-03-26T13:41:47Z</time>
      </trkpt>
      <trkpt lat="43.50541" lon="6.05116">
        <ele>296.4</ele>
        <time>2014-03-26T13:41:58Z</time>
      </trkpt>
      <trkpt lat="43.50549" lon="6.05116">
        <ele>298.3</ele>
        <time>2014-03-26T13:42:09Z</time>
      </trkpt>
      <trkpt lat="43.50557" lon="6.05118">
        <ele>298.9</ele>
        <time>2014-03-26T13:42:21Z</time>
      </trkpt>
      <trkpt lat="43.50566" lon="6.05118">
        <ele>299.1</ele>
        <time>2014-03-26T13:42:33Z</time>
      </trkpt>
      <trkpt lat="43.50567" lon="6.05118">
        <ele>299.3</ele>
        <time>2014-03-26T13:42:34Z</time>
      </trkpt>
      <trkpt lat="43.50582" lon="6.05125">
        <ele>300.3</ele>
        <time>2014-03-26T13:42:51Z</time>
      </trkpt>
      <trkpt lat="43.50591" lon="6.0513">
        <ele>303.5</ele>
        <time>2014-03-26T13:43:04Z</time>
      </trkpt>
      <trkpt lat="43.50598" lon="6.05136">
        <ele>305.2</ele>
        <time>2014-03-26T13:43:16Z</time>
      </trkpt>
      <trkpt lat="43.50604" lon="6.05145">
        <ele>308.4</ele>
        <time>2014-03-26T13:43:27Z</time>
      </trkpt>
      <trkpt lat="43.50608" lon="6.05156">
        <ele>308.4</ele>
        <time>2014-03-26T13:43:41Z</time>
      </trkpt>
      <trkpt lat="43.50609" lon="6.05156">
        <ele>308.7</ele>
        <time>2014-03-26T13:43:42Z</time>
      </trkpt>
      <trkpt lat="43.50617" lon="6.05176">
        <ele>312.7</ele>
        <time>2014-03-26T13:44:02Z</time>
      </trkpt>
      <trkpt lat="43.50621" lon="6.05186">
        <ele>314</ele>
        <time>2014-03-26T13:44:12Z</time>
      </trkpt>
      <trkpt lat="43.50628" lon="6.05193">
        <ele>314.4</ele>
        <time>2014-03-26T13:44:26Z</time>
      </trkpt>
      <trkpt lat="43.50634" lon="6.05201">
        <ele>315.5</ele>
        <time>2014-03-26T13:44:36Z</time>
      </trkpt>
      <trkpt lat="43.50638" lon="6.05213">
        <ele>314.2</ele>
        <time>2014-03-26T13:44:51Z</time>
      </trkpt>
      <trkpt lat="43.50638" lon="6.05213">
        <ele>314.2</ele>
        <time>2014-03-26T13:44:52Z</time>
      </trkpt>
      <trkpt lat="43.50641" lon="6.05224">
        <ele>315.6</ele>
        <time>2014-03-26T13:46:21Z</time>
      </trkpt>
      <trkpt lat="43.50635" lon="6.05234">
        <ele>315.3</ele>
        <time>2014-03-26T13:47:27Z</time>
      </trkpt>
      <trkpt lat="43.50636" lon="6.05221">
        <ele>315</ele>
        <time>2014-03-26T13:49:44Z</time>
      </trkpt>
      <trkpt lat="43.50636" lon="6.05221">
        <ele>315.4</ele>
        <time>2014-03-26T13:49:45Z</time>
      </trkpt>
      <trkpt lat="43.50647" lon="6.05203">
        <ele>318.2</ele>
        <time>2014-03-26T13:50:18Z</time>
      </trkpt>
      <trkpt lat="43.50654" lon="6.05197">
        <ele>319</ele>
        <time>2014-03-26T13:50:29Z</time>
      </trkpt>
      <trkpt lat="43.50662" lon="6.05193">
        <ele>319.4</ele>
        <time>2014-03-26T13:50:41Z</time>
      </trkpt>
      <trkpt lat="43.50671" lon="6.05192">
        <ele>322.3</ele>
        <time>2014-03-26T13:50:52Z</time>
      </trkpt>
      <trkpt lat="43.50671" lon="6.05191">
        <ele>322.4</ele>
        <time>2014-03-26T13:50:53Z</time>
      </trkpt>
      <trkpt lat="43.50685" lon="6.05181">
        <ele>323.1</ele>
        <time>2014-03-26T13:51:17Z</time>
      </trkpt>
      <trkpt lat="43.50691" lon="6.05172">
        <ele>323.2</ele>
        <time>2014-03-26T13:51:24Z</time>
      </trkpt>
      <trkpt lat="43.50698" lon="6.05163">
        <ele>323.7</ele>
        <time>2014-03-26T13:51:31Z</time>
      </trkpt>
      <trkpt lat="43.50702" lon="6.05153">
        <ele>324.9</ele>
        <time>2014-03-26T13:51:43Z</time>
      </trkpt>
      <trkpt lat="43.50706" lon="6.05143">
        <ele>326.2</ele>
        <time>2014-03-26T13:51:53Z</time>
      </trkpt>
      <trkpt lat="43.50706" lon="6.05142">
        <ele>326.6</ele>
        <time>2014-03-26T13:51:54Z</time>
      </trkpt>
      <trkpt lat="43.50716" lon="6.05128">
        <ele>325.3</ele>
        <time>2014-03-26T13:52:03Z</time>
      </trkpt>
      <trkpt lat="43.50723" lon="6.05121">
        <ele>325.5</ele>
        <time>2014-03-26T13:52:09Z</time>
      </trkpt>
      <trkpt lat="43.50729" lon="6.05112">
        <ele>325.1</ele>
        <time>2014-03-26T13:52:18Z</time>
      </trkpt>
      <trkpt lat="43.50733" lon="6.05103">
        <ele>323.3</ele>
        <time>2014-03-26T13:52:28Z</time>
      </trkpt>
      <trkpt lat="43.50737" lon="6.05093">
        <ele>322.8</ele>
        <time>2014-03-26T13:52:37Z</time>
      </trkpt>
      <trkpt lat="43.50743" lon="6.05084">
        <ele>322.9</ele>
        <time>2014-03-26T13:52:45Z</time>
      </trkpt>
      <trkpt lat="43.50747" lon="6.05075">
        <ele>321.9</ele>
        <time>2014-03-26T13:52:52Z</time>
      </trkpt>
      <trkpt lat="43.50752" lon="6.05065">
        <ele>322.7</ele>
        <time>2014-03-26T13:52:58Z</time>
      </trkpt>
      <trkpt lat="43.50753" lon="6.05063">
        <ele>322.7</ele>
        <time>2014-03-26T13:52:59Z</time>
      </trkpt>
      <trkpt lat="43.50762" lon="6.05046">
        <ele>322.1</ele>
        <time>2014-03-26T13:53:11Z</time>
      </trkpt>
      <trkpt lat="43.50767" lon="6.05037">
        <ele>322.3</ele>
        <time>2014-03-26T13:53:18Z</time>
      </trkpt>
      <trkpt lat="43.50772" lon="6.05029">
        <ele>321.7</ele>
        <time>2014-03-26T13:53:24Z</time>
      </trkpt>
      <trkpt lat="43.50778" lon="6.05019">
        <ele>322</ele>
        <time>2014-03-26T13:53:30Z</time>
      </trkpt>
      <trkpt lat="43.50784" lon="6.0501">
        <ele>321</ele>
        <time>2014-03-26T13:53:38Z</time>
      </trkpt>
      <trkpt lat="43.50789" lon="6.05001">
        <ele>320.3</ele>
        <time>2014-03-26T13:53:45Z</time>
      </trkpt>
      <trkpt lat="43.50796" lon="6.04995">
        <ele>320.2</ele>
        <time>2014-03-26T13:53:52Z</time>
      </trkpt>
      <trkpt lat="43.50803" lon="6.04987">
        <ele>320.6</ele>
        <time>2014-03-26T13:54:00Z</time>
      </trkpt>
      <trkpt lat="43.50804" lon="6.04986">
        <ele>320.4</ele>
        <time>2014-03-26T13:54:01Z</time>
      </trkpt>
      <trkpt lat="43.50817" lon="6.04974">
        <ele>320.3</ele>
        <time>2014-03-26T13:54:13Z</time>
      </trkpt>
      <trkpt lat="43.50822" lon="6.04964">
        <ele>319.3</ele>
        <time>2014-03-26T13:54:23Z</time>
      </trkpt>
      <trkpt lat="43.50825" lon="6.04953">
        <ele>317.9</ele>
        <time>2014-03-26T13:54:36Z</time>
      </trkpt>
      <trkpt lat="43.50826" lon="6.04941">
        <ele>315.9</ele>
        <time>2014-03-26T13:54:45Z</time>
      </trkpt>
      <trkpt lat="43.50827" lon="6.0493">
        <ele>313.8</ele>
        <time>2014-03-26T13:54:54Z</time>
      </trkpt>
      <trkpt lat="43.50831" lon="6.0492">
        <ele>313</ele>
        <time>2014-03-26T13:55:01Z</time>
      </trkpt>
      <trkpt lat="43.50832" lon="6.04919">
        <ele>312.4</ele>
        <time>2014-03-26T13:55:02Z</time>
      </trkpt>
      <trkpt lat="43.50834" lon="6.04897">
        <ele>309.1</ele>
        <time>2014-03-26T13:55:16Z</time>
      </trkpt>
      <trkpt lat="43.5084" lon="6.0489">
        <ele>309.3</ele>
        <time>2014-03-26T13:55:21Z</time>
      </trkpt>
      <trkpt lat="43.50845" lon="6.04881">
        <ele>307.2</ele>
        <time>2014-03-26T13:55:29Z</time>
      </trkpt>
      <trkpt lat="43.50841" lon="6.04871">
        <ele>308.1</ele>
        <time>2014-03-26T13:55:38Z</time>
      </trkpt>
      <trkpt lat="43.50835" lon="6.04863">
        <ele>306.7</ele>
        <time>2014-03-26T13:55:46Z</time>
      </trkpt>
      <trkpt lat="43.50835" lon="6.04851">
        <ele>307.1</ele>
        <time>2014-03-26T13:55:53Z</time>
      </trkpt>
      <trkpt lat="43.50838" lon="6.0484">
        <ele>308.2</ele>
        <time>2014-03-26T13:56:01Z</time>
      </trkpt>
      <trkpt lat="43.50843" lon="6.0483">
        <ele>307.7</ele>
        <time>2014-03-26T13:56:08Z</time>
      </trkpt>
      <trkpt lat="43.50844" lon="6.04828">
        <ele>307.9</ele>
        <time>2014-03-26T13:56:09Z</time>
      </trkpt>
      <trkpt lat="43.50854" lon="6.04812">
        <ele>308.8</ele>
        <time>2014-03-26T13:56:20Z</time>
      </trkpt>
      <trkpt lat="43.50859" lon="6.04802">
        <ele>309.3</ele>
        <time>2014-03-26T13:56:27Z</time>
      </trkpt>
      <trkpt lat="43.50865" lon="6.04795">
        <ele>310.6</ele>
        <time>2014-03-26T13:56:33Z</time>
      </trkpt>
      <trkpt lat="43.50873" lon="6.04788">
        <ele>310.8</ele>
        <time>2014-03-26T13:56:40Z</time>
      </trkpt>
      <trkpt lat="43.50881" lon="6.04784">
        <ele>310.5</ele>
        <time>2014-03-26T13:56:48Z</time>
      </trkpt>
      <trkpt lat="43.50889" lon="6.04781">
        <ele>310</ele>
        <time>2014-03-26T13:56:54Z</time>
      </trkpt>
      <trkpt lat="43.50898" lon="6.04778">
        <ele>312.4</ele>
        <time>2014-03-26T13:57:01Z</time>
      </trkpt>
      <trkpt lat="43.50906" lon="6.04774">
        <ele>311.1</ele>
        <time>2014-03-26T13:57:08Z</time>
      </trkpt>
      <trkpt lat="43.50914" lon="6.04769">
        <ele>311.4</ele>
        <time>2014-03-26T13:57:16Z</time>
      </trkpt>
      <trkpt lat="43.50915" lon="6.04769">
        <ele>311.4</ele>
        <time>2014-03-26T13:57:17Z</time>
      </trkpt>
      <trkpt lat="43.5093" lon="6.04763">
        <ele>312.7</ele>
        <time>2014-03-26T13:57:31Z</time>
      </trkpt>
      <trkpt lat="43.50938" lon="6.0476">
        <ele>312.9</ele>
        <time>2014-03-26T13:57:39Z</time>
      </trkpt>
      <trkpt lat="43.50946" lon="6.04757">
        <ele>313.1</ele>
        <time>2014-03-26T13:57:46Z</time>
      </trkpt>
      <trkpt lat="43.50954" lon="6.04753">
        <ele>314.3</ele>
        <time>2014-03-26T13:57:55Z</time>
      </trkpt>
      <trkpt lat="43.50961" lon="6.04747">
        <ele>315.2</ele>
        <time>2014-03-26T13:58:03Z</time>
      </trkpt>
      <trkpt lat="43.50969" lon="6.04742">
        <ele>315.4</ele>
        <time>2014-03-26T13:58:13Z</time>
      </trkpt>
      <trkpt lat="43.50976" lon="6.0475">
        <ele>316.2</ele>
        <time>2014-03-26T13:58:22Z</time>
      </trkpt>
      <trkpt lat="43.50977" lon="6.04751">
        <ele>316.1</ele>
        <time>2014-03-26T13:58:23Z</time>
      </trkpt>
      <trkpt lat="43.50987" lon="6.04769">
        <ele>313.8</ele>
        <time>2014-03-26T13:58:40Z</time>
      </trkpt>
      <trkpt lat="43.50995" lon="6.04769">
        <ele>313.8</ele>
        <time>2014-03-26T13:58:48Z</time>
      </trkpt>
      <trkpt lat="43.51003" lon="6.04767">
        <ele>313</ele>
        <time>2014-03-26T13:58:55Z</time>
      </trkpt>
      <trkpt lat="43.5101" lon="6.04761">
        <ele>313.4</ele>
        <time>2014-03-26T13:59:03Z</time>
      </trkpt>
      <trkpt lat="43.51017" lon="6.04754">
        <ele>313.7</ele>
        <time>2014-03-26T13:59:11Z</time>
      </trkpt>
      <trkpt lat="43.51023" lon="6.04746">
        <ele>314.4</ele>
        <time>2014-03-26T13:59:19Z</time>
      </trkpt>
      <trkpt lat="43.5103" lon="6.04739">
        <ele>313.8</ele>
        <time>2014-03-26T13:59:27Z</time>
      </trkpt>
      <trkpt lat="43.5103" lon="6.04738">
        <ele>313.9</ele>
        <time>2014-03-26T13:59:28Z</time>
      </trkpt>
      <trkpt lat="43.51044" lon="6.04727">
        <ele>315.7</ele>
        <time>2014-03-26T13:59:41Z</time>
      </trkpt>
      <trkpt lat="43.51051" lon="6.04721">
        <ele>315.6</ele>
        <time>2014-03-26T13:59:48Z</time>
      </trkpt>
      <trkpt lat="43.51058" lon="6.04715">
        <ele>315.2</ele>
        <time>2014-03-26T13:59:55Z</time>
      </trkpt>
      <trkpt lat="43.51065" lon="6.0471">
        <ele>315.5</ele>
        <time>2014-03-26T14:00:02Z</time>
      </trkpt>
      <trkpt lat="43.51072" lon="6.04704">
        <ele>316</ele>
        <time>2014-03-26T14:00:10Z</time>
      </trkpt>
      <trkpt lat="43.5108" lon="6.04698">
        <ele>316.6</ele>
        <time>2014-03-26T14:00:19Z</time>
      </trkpt>
      <trkpt lat="43.51087" lon="6.04693">
        <ele>316.2</ele>
        <time>2014-03-26T14:00:28Z</time>
      </trkpt>
      <trkpt lat="43.51094" lon="6.04686">
        <ele>316</ele>
        <time>2014-03-26T14:00:37Z</time>
      </trkpt>
      <trkpt lat="43.51095" lon="6.04685">
        <ele>315.7</ele>
        <time>2014-03-26T14:00:38Z</time>
      </trkpt>
      <trkpt lat="43.51108" lon="6.04673">
        <ele>317</ele>
        <time>2014-03-26T14:00:54Z</time>
      </trkpt>
      <trkpt lat="43.51115" lon="6.04666">
        <ele>317</ele>
        <time>2014-03-26T14:01:02Z</time>
      </trkpt>
      <trkpt lat="43.51122" lon="6.0466">
        <ele>316.8</ele>
        <time>2014-03-26T14:01:10Z</time>
      </trkpt>
      <trkpt lat="43.51129" lon="6.04653">
        <ele>316.6</ele>
        <time>2014-03-26T14:01:17Z</time>
      </trkpt>
      <trkpt lat="43.51136" lon="6.04647">
        <ele>316.8</ele>
        <time>2014-03-26T14:01:25Z</time>
      </trkpt>
      <trkpt lat="43.51143" lon="6.0464">
        <ele>316.5</ele>
        <time>2014-03-26T14:01:33Z</time>
      </trkpt>
      <trkpt lat="43.51147" lon="6.0463">
        <ele>317</ele>
        <time>2014-03-26T14:01:44Z</time>
      </trkpt>
      <trkpt lat="43.51147" lon="6.04629">
        <ele>317.2</ele>
        <time>2014-03-26T14:01:45Z</time>
      </trkpt>
      <trkpt lat="43.51148" lon="6.04609">
        <ele>318.6</ele>
        <time>2014-03-26T14:02:05Z</time>
      </trkpt>
      <trkpt lat="43.51156" lon="6.04615">
        <ele>319.5</ele>
        <time>2014-03-26T14:02:18Z</time>
      </trkpt>
      <trkpt lat="43.51162" lon="6.04622">
        <ele>319.4</ele>
        <time>2014-03-26T14:02:28Z</time>
      </trkpt>
      <trkpt lat="43.51169" lon="6.0463">
        <ele>319.1</ele>
        <time>2014-03-26T14:02:37Z</time>
      </trkpt>
      <trkpt lat="43.51175" lon="6.04638">
        <ele>319.2</ele>
        <time>2014-03-26T14:02:46Z</time>
      </trkpt>
      <trkpt lat="43.51175" lon="6.04638">
        <ele>318.9</ele>
        <time>2014-03-26T14:02:47Z</time>
      </trkpt>
      <trkpt lat="43.51188" lon="6.04652">
        <ele>319.5</ele>
        <time>2014-03-26T14:03:03Z</time>
      </trkpt>
      <trkpt lat="43.51196" lon="6.04656">
        <ele>320.4</ele>
        <time>2014-03-26T14:03:12Z</time>
      </trkpt>
      <trkpt lat="43.51204" lon="6.04654">
        <ele>320</ele>
        <time>2014-03-26T14:03:21Z</time>
      </trkpt>
      <trkpt lat="43.51213" lon="6.04653">
        <ele>321.2</ele>
        <time>2014-03-26T14:03:29Z</time>
      </trkpt>
      <trkpt lat="43.51221" lon="6.04653">
        <ele>322.1</ele>
        <time>2014-03-26T14:03:37Z</time>
      </trkpt>
      <trkpt lat="43.5123" lon="6.04651">
        <ele>322.1</ele>
        <time>2014-03-26T14:03:46Z</time>
      </trkpt>
      <trkpt lat="43.51238" lon="6.04652">
        <ele>321</ele>
        <time>2014-03-26T14:03:54Z</time>
      </trkpt>
      <trkpt lat="43.51239" lon="6.04652">
        <ele>321.5</ele>
        <time>2014-03-26T14:03:55Z</time>
      </trkpt>
      <trkpt lat="43.51255" lon="6.04651">
        <ele>321.8</ele>
        <time>2014-03-26T14:04:11Z</time>
      </trkpt>
      <trkpt lat="43.51263" lon="6.0465">
        <ele>324</ele>
        <time>2014-03-26T14:04:19Z</time>
      </trkpt>
      <trkpt lat="43.51272" lon="6.0465">
        <ele>322.6</ele>
        <time>2014-03-26T14:04:27Z</time>
      </trkpt>
      <trkpt lat="43.5128" lon="6.04651">
        <ele>323</ele>
        <time>2014-03-26T14:04:35Z</time>
      </trkpt>
      <trkpt lat="43.51288" lon="6.04656">
        <ele>323.4</ele>
        <time>2014-03-26T14:04:44Z</time>
      </trkpt>
      <trkpt lat="43.51294" lon="6.04663">
        <ele>322.7</ele>
        <time>2014-03-26T14:04:52Z</time>
      </trkpt>
      <trkpt lat="43.51302" lon="6.04668">
        <ele>324.2</ele>
        <time>2014-03-26T14:05:01Z</time>
      </trkpt>
      <trkpt lat="43.51303" lon="6.04668">
        <ele>324.1</ele>
        <time>2014-03-26T14:05:02Z</time>
      </trkpt>
      <trkpt lat="43.51318" lon="6.04675">
        <ele>326.3</ele>
        <time>2014-03-26T14:05:19Z</time>
      </trkpt>
      <trkpt lat="43.51325" lon="6.04682">
        <ele>327.8</ele>
        <time>2014-03-26T14:05:28Z</time>
      </trkpt>
      <trkpt lat="43.51331" lon="6.0469">
        <ele>328.7</ele>
        <time>2014-03-26T14:05:37Z</time>
      </trkpt>
      <trkpt lat="43.51335" lon="6.04699">
        <ele>329.9</ele>
        <time>2014-03-26T14:05:45Z</time>
      </trkpt>
      <trkpt lat="43.51338" lon="6.04709">
        <ele>331</ele>
        <time>2014-03-26T14:05:53Z</time>
      </trkpt>
      <trkpt lat="43.51339" lon="6.04721">
        <ele>332</ele>
        <time>2014-03-26T14:06:01Z</time>
      </trkpt>
      <trkpt lat="43.5134" lon="6.04732">
        <ele>332.2</ele>
        <time>2014-03-26T14:06:07Z</time>
      </trkpt>
      <trkpt lat="43.5134" lon="6.04734">
        <ele>332.6</ele>
        <time>2014-03-26T14:06:08Z</time>
      </trkpt>
      <trkpt lat="43.51339" lon="6.04755">
        <ele>336</ele>
        <time>2014-03-26T14:06:24Z</time>
      </trkpt>
      <trkpt lat="43.51336" lon="6.04766">
        <ele>336.9</ele>
        <time>2014-03-26T14:06:32Z</time>
      </trkpt>
      <trkpt lat="43.51335" lon="6.04777">
        <ele>337.3</ele>
        <time>2014-03-26T14:06:40Z</time>
      </trkpt>
      <trkpt lat="43.51334" lon="6.04789">
        <ele>339.4</ele>
        <time>2014-03-26T14:06:49Z</time>
      </trkpt>
      <trkpt lat="43.51333" lon="6.04801">
        <ele>341.2</ele>
        <time>2014-03-26T14:06:59Z</time>
      </trkpt>
      <trkpt lat="43.51333" lon="6.04812">
        <ele>342.1</ele>
        <time>2014-03-26T14:07:09Z</time>
      </trkpt>
      <trkpt lat="43.51334" lon="6.04814">
        <ele>342.6</ele>
        <time>2014-03-26T14:07:10Z</time>
      </trkpt>
      <trkpt lat="43.5134" lon="6.04833">
        <ele>344.1</ele>
        <time>2014-03-26T14:07:26Z</time>
      </trkpt>
      <trkpt lat="43.51344" lon="6.04843">
        <ele>344.3</ele>
        <time>2014-03-26T14:07:36Z</time>
      </trkpt>
      <trkpt lat="43.51347" lon="6.04852">
        <ele>345.7</ele>
        <time>2014-03-26T14:07:44Z</time>
      </trkpt>
      <trkpt lat="43.51351" lon="6.04862">
        <ele>346</ele>
        <time>2014-03-26T14:07:52Z</time>
      </trkpt>
      <trkpt lat="43.51355" lon="6.04873">
        <ele>346.3</ele>
        <time>2014-03-26T14:08:02Z</time>
      </trkpt>
      <trkpt lat="43.51356" lon="6.04884">
        <ele>346</ele>
        <time>2014-03-26T14:08:13Z</time>
      </trkpt>
      <trkpt lat="43.51356" lon="6.04885">
        <ele>346.4</ele>
        <time>2014-03-26T14:08:14Z</time>
      </trkpt>
      <trkpt lat="43.51359" lon="6.04907">
        <ele>345.6</ele>
        <time>2014-03-26T14:08:27Z</time>
      </trkpt>
      <trkpt lat="43.5136" lon="6.04918">
        <ele>345.4</ele>
        <time>2014-03-26T14:08:33Z</time>
      </trkpt>
      <trkpt lat="43.51362" lon="6.0493">
        <ele>345</ele>
        <time>2014-03-26T14:08:39Z</time>
      </trkpt>
      <trkpt lat="43.51364" lon="6.04941">
        <ele>345.4</ele>
        <time>2014-03-26T14:08:46Z</time>
      </trkpt>
      <trkpt lat="43.51366" lon="6.04952">
        <ele>344.8</ele>
        <time>2014-03-26T14:08:52Z</time>
      </trkpt>
      <trkpt lat="43.51368" lon="6.04962">
        <ele>344.5</ele>
        <time>2014-03-26T14:08:59Z</time>
      </trkpt>
      <trkpt lat="43.51369" lon="6.04974">
        <ele>344.6</ele>
        <time>2014-03-26T14:09:06Z</time>
      </trkpt>
      <trkpt lat="43.51371" lon="6.04985">
        <ele>345.2</ele>
        <time>2014-03-26T14:09:15Z</time>
      </trkpt>
      <trkpt lat="43.51372" lon="6.04986">
        <ele>345.5</ele>
        <time>2014-03-26T14:09:16Z</time>
      </trkpt>
      <trkpt lat="43.51379" lon="6.05006">
        <ele>346.5</ele>
        <time>2014-03-26T14:09:32Z</time>
      </trkpt>
      <trkpt lat="43.5138" lon="6.05018">
        <ele>346.1</ele>
        <time>2014-03-26T14:09:38Z</time>
      </trkpt>
      <trkpt lat="43.5138" lon="6.0503">
        <ele>345.3</ele>
        <time>2014-03-26T14:09:45Z</time>
      </trkpt>
      <trkpt lat="43.5138" lon="6.05041">
        <ele>345.2</ele>
        <time>2014-03-26T14:09:51Z</time>
      </trkpt>
      <trkpt lat="43.5138" lon="6.05052">
        <ele>344.5</ele>
        <time>2014-03-26T14:09:57Z</time>
      </trkpt>
      <trkpt lat="43.51378" lon="6.05064">
        <ele>345</ele>
        <time>2014-03-26T14:10:05Z</time>
      </trkpt>
      <trkpt lat="43.51377" lon="6.05075">
        <ele>344.2</ele>
        <time>2014-03-26T14:10:12Z</time>
      </trkpt>
      <trkpt lat="43.51376" lon="6.05087">
        <ele>345</ele>
        <time>2014-03-26T14:10:18Z</time>
      </trkpt>
      <trkpt lat="43.51375" lon="6.05088">
        <ele>345.4</ele>
        <time>2014-03-26T14:10:19Z</time>
      </trkpt>
      <trkpt lat="43.51376" lon="6.05109">
        <ele>345.2</ele>
        <time>2014-03-26T14:10:31Z</time>
      </trkpt>
      <trkpt lat="43.51377" lon="6.0512">
        <ele>346</ele>
        <time>2014-03-26T14:10:38Z</time>
      </trkpt>
      <trkpt lat="43.5138" lon="6.05131">
        <ele>346.1</ele>
        <time>2014-03-26T14:10:47Z</time>
      </trkpt>
      <trkpt lat="43.51384" lon="6.05142">
        <ele>346.7</ele>
        <time>2014-03-26T14:10:56Z</time>
      </trkpt>
      <trkpt lat="43.51387" lon="6.05153">
        <ele>347.3</ele>
        <time>2014-03-26T14:11:05Z</time>
      </trkpt>
      <trkpt lat="43.51392" lon="6.05162">
        <ele>347.8</ele>
        <time>2014-03-26T14:11:12Z</time>
      </trkpt>
      <trkpt lat="43.51395" lon="6.05173">
        <ele>347.9</ele>
        <time>2014-03-26T14:11:18Z</time>
      </trkpt>
      <trkpt lat="43.51398" lon="6.05183">
        <ele>349.5</ele>
        <time>2014-03-26T14:11:25Z</time>
      </trkpt>
      <trkpt lat="43.51398" lon="6.05185">
        <ele>349.1</ele>
        <time>2014-03-26T14:11:26Z</time>
      </trkpt>
      <trkpt lat="43.51399" lon="6.05206">
        <ele>351.1</ele>
        <time>2014-03-26T14:11:39Z</time>
      </trkpt>
      <trkpt lat="43.51399" lon="6.05218">
        <ele>350.6</ele>
        <time>2014-03-26T14:11:46Z</time>
      </trkpt>
      <trkpt lat="43.514" lon="6.0523">
        <ele>351.2</ele>
        <time>2014-03-26T14:11:55Z</time>
      </trkpt>
      <trkpt lat="43.514" lon="6.05242">
        <ele>351.3</ele>
        <time>2014-03-26T14:12:03Z</time>
      </trkpt>
      <trkpt lat="43.51401" lon="6.05254">
        <ele>351.5</ele>
        <time>2014-03-26T14:12:10Z</time>
      </trkpt>
      <trkpt lat="43.51401" lon="6.05266">
        <ele>350.9</ele>
        <time>2014-03-26T14:12:19Z</time>
      </trkpt>
      <trkpt lat="43.51402" lon="6.05278">
        <ele>352.4</ele>
        <time>2014-03-26T14:12:27Z</time>
      </trkpt>
      <trkpt lat="43.51402" lon="6.05279">
        <ele>352.4</ele>
        <time>2014-03-26T14:12:28Z</time>
      </trkpt>
      <trkpt lat="43.51405" lon="6.05302">
        <ele>353.3</ele>
        <time>2014-03-26T14:12:44Z</time>
      </trkpt>
      <trkpt lat="43.51406" lon="6.05313">
        <ele>352.6</ele>
        <time>2014-03-26T14:12:51Z</time>
      </trkpt>
      <trkpt lat="43.51406" lon="6.05325">
        <ele>352.9</ele>
        <time>2014-03-26T14:12:58Z</time>
      </trkpt>
      <trkpt lat="43.51408" lon="6.05337">
        <ele>354.1</ele>
        <time>2014-03-26T14:13:05Z</time>
      </trkpt>
      <trkpt lat="43.51408" lon="6.05349">
        <ele>353.7</ele>
        <time>2014-03-26T14:13:14Z</time>
      </trkpt>
      <trkpt lat="43.51411" lon="6.05361">
        <ele>353.5</ele>
        <time>2014-03-26T14:14:15Z</time>
      </trkpt>
      <trkpt lat="43.51411" lon="6.05361">
        <ele>353.3</ele>
        <time>2014-03-26T14:14:16Z</time>
      </trkpt>
      <trkpt lat="43.51402" lon="6.05361">
        <ele>353.2</ele>
        <time>2014-03-26T14:16:08Z</time>
      </trkpt>
      <trkpt lat="43.51416" lon="6.05374">
        <ele>354.1</ele>
        <time>2014-03-26T14:16:31Z</time>
      </trkpt>
      <trkpt lat="43.51424" lon="6.0538">
        <ele>354.2</ele>
        <time>2014-03-26T14:16:40Z</time>
      </trkpt>
      <trkpt lat="43.51431" lon="6.05387">
        <ele>353.9</ele>
        <time>2014-03-26T14:16:48Z</time>
      </trkpt>
      <trkpt lat="43.51437" lon="6.05394">
        <ele>353.6</ele>
        <time>2014-03-26T14:16:55Z</time>
      </trkpt>
      <trkpt lat="43.51445" lon="6.054">
        <ele>351.6</ele>
        <time>2014-03-26T14:17:04Z</time>
      </trkpt>
      <trkpt lat="43.51452" lon="6.05407">
        <ele>351.3</ele>
        <time>2014-03-26T14:17:11Z</time>
      </trkpt>
      <trkpt lat="43.51453" lon="6.05409">
        <ele>350.6</ele>
        <time>2014-03-26T14:17:12Z</time>
      </trkpt>
      <trkpt lat="43.51465" lon="6.05422">
        <ele>350.4</ele>
        <time>2014-03-26T14:17:26Z</time>
      </trkpt>
      <trkpt lat="43.51471" lon="6.0543">
        <ele>350.3</ele>
        <time>2014-03-26T14:17:34Z</time>
      </trkpt>
      <trkpt lat="43.51478" lon="6.05436">
        <ele>350.3</ele>
        <time>2014-03-26T14:17:42Z</time>
      </trkpt>
      <trkpt lat="43.51485" lon="6.05441">
        <ele>347.3</ele>
        <time>2014-03-26T14:17:49Z</time>
      </trkpt>
      <trkpt lat="43.51492" lon="6.05446">
        <ele>347.1</ele>
        <time>2014-03-26T14:17:56Z</time>
      </trkpt>
      <trkpt lat="43.515" lon="6.0545">
        <ele>346</ele>
        <time>2014-03-26T14:18:04Z</time>
      </trkpt>
      <trkpt lat="43.51508" lon="6.05455">
        <ele>346.3</ele>
        <time>2014-03-26T14:18:11Z</time>
      </trkpt>
      <trkpt lat="43.51515" lon="6.05461">
        <ele>344.7</ele>
        <time>2014-03-26T14:18:18Z</time>
      </trkpt>
      <trkpt lat="43.51516" lon="6.05462">
        <ele>345</ele>
        <time>2014-03-26T14:18:19Z</time>
      </trkpt>
      <trkpt lat="43.51529" lon="6.05476">
        <ele>344.3</ele>
        <time>2014-03-26T14:18:34Z</time>
      </trkpt>
      <trkpt lat="43.51536" lon="6.05482">
        <ele>345.4</ele>
        <time>2014-03-26T14:18:42Z</time>
      </trkpt>
      <trkpt lat="43.51543" lon="6.05488">
        <ele>344.3</ele>
        <time>2014-03-26T14:18:48Z</time>
      </trkpt>
      <trkpt lat="43.5155" lon="6.05495">
        <ele>345.2</ele>
        <time>2014-03-26T14:18:55Z</time>
      </trkpt>
      <trkpt lat="43.51555" lon="6.05505">
        <ele>345.3</ele>
        <time>2014-03-26T14:19:11Z</time>
      </trkpt>
      <trkpt lat="43.51558" lon="6.05517">
        <ele>343.9</ele>
        <time>2014-03-26T14:19:24Z</time>
      </trkpt>
      <trkpt lat="43.51558" lon="6.05518">
        <ele>343.8</ele>
        <time>2014-03-26T14:19:25Z</time>
      </trkpt>
      <trkpt lat="43.5156" lon="6.05541">
        <ele>339.3</ele>
        <time>2014-03-26T14:19:48Z</time>
      </trkpt>
      <trkpt lat="43.51562" lon="6.05529">
        <ele>343.2</ele>
        <time>2014-03-26T14:20:10Z</time>
      </trkpt>
      <trkpt lat="43.51565" lon="6.05518">
        <ele>344.6</ele>
        <time>2014-03-26T14:20:30Z</time>
      </trkpt>
      <trkpt lat="43.51565" lon="6.05518">
        <ele>344.9</ele>
        <time>2014-03-26T14:20:31Z</time>
      </trkpt>
      <trkpt lat="43.51579" lon="6.05505">
        <ele>346.6</ele>
        <time>2014-03-26T14:21:18Z</time>
      </trkpt>
      <trkpt lat="43.51586" lon="6.055">
        <ele>345.7</ele>
        <time>2014-03-26T14:21:26Z</time>
      </trkpt>
      <trkpt lat="43.51594" lon="6.05497">
        <ele>346.2</ele>
        <time>2014-03-26T14:21:36Z</time>
      </trkpt>
      <trkpt lat="43.51595" lon="6.05497">
        <ele>345.9</ele>
        <time>2014-03-26T14:21:37Z</time>
      </trkpt>
      <trkpt lat="43.51609" lon="6.05506">
        <ele>347.3</ele>
        <time>2014-03-26T14:21:52Z</time>
      </trkpt>
      <trkpt lat="43.51614" lon="6.05515">
        <ele>346.6</ele>
        <time>2014-03-26T14:21:59Z</time>
      </trkpt>
      <trkpt lat="43.5162" lon="6.05522">
        <ele>345.8</ele>
        <time>2014-03-26T14:22:06Z</time>
      </trkpt>
      <trkpt lat="43.51626" lon="6.05529">
        <ele>345.5</ele>
        <time>2014-03-26T14:22:12Z</time>
      </trkpt>
      <trkpt lat="43.51634" lon="6.05535">
        <ele>342.7</ele>
        <time>2014-03-26T14:22:19Z</time>
      </trkpt>
      <trkpt lat="43.51642" lon="6.05538">
        <ele>343.7</ele>
        <time>2014-03-26T14:22:26Z</time>
      </trkpt>
      <trkpt lat="43.5165" lon="6.05541">
        <ele>343.4</ele>
        <time>2014-03-26T14:22:34Z</time>
      </trkpt>
      <trkpt lat="43.51658" lon="6.05542">
        <ele>343.9</ele>
        <time>2014-03-26T14:22:41Z</time>
      </trkpt>
      <trkpt lat="43.51659" lon="6.05542">
        <ele>343.8</ele>
        <time>2014-03-26T14:22:42Z</time>
      </trkpt>
      <trkpt lat="43.51675" lon="6.05542">
        <ele>345.6</ele>
        <time>2014-03-26T14:22:57Z</time>
      </trkpt>
      <trkpt lat="43.51683" lon="6.05541">
        <ele>346.1</ele>
        <time>2014-03-26T14:23:04Z</time>
      </trkpt>
      <trkpt lat="43.51692" lon="6.05542">
        <ele>346.2</ele>
        <time>2014-03-26T14:23:13Z</time>
      </trkpt>
      <trkpt lat="43.517" lon="6.05544">
        <ele>346.8</ele>
        <time>2014-03-26T14:23:21Z</time>
      </trkpt>
      <trkpt lat="43.51709" lon="6.05546">
        <ele>346.2</ele>
        <time>2014-03-26T14:23:29Z</time>
      </trkpt>
      <trkpt lat="43.51717" lon="6.05545">
        <ele>347.5</ele>
        <time>2014-03-26T14:23:39Z</time>
      </trkpt>
      <trkpt lat="43.51725" lon="6.05544">
        <ele>346.2</ele>
        <time>2014-03-26T14:23:46Z</time>
      </trkpt>
      <trkpt lat="43.51727" lon="6.05545">
        <ele>346.1</ele>
        <time>2014-03-26T14:23:47Z</time>
      </trkpt>
      <trkpt lat="43.51742" lon="6.05544">
        <ele>346.2</ele>
        <time>2014-03-26T14:24:05Z</time>
      </trkpt>
      <trkpt lat="43.51749" lon="6.05544">
        <ele>346.5</ele>
        <time>2014-03-26T14:24:10Z</time>
      </trkpt>
      <trkpt lat="43.51757" lon="6.05544">
        <ele>347</ele>
        <time>2014-03-26T14:24:17Z</time>
      </trkpt>
      <trkpt lat="43.51765" lon="6.05545">
        <ele>346</ele>
        <time>2014-03-26T14:24:23Z</time>
      </trkpt>
      <trkpt lat="43.51772" lon="6.05549">
        <ele>345.8</ele>
        <time>2014-03-26T14:24:30Z</time>
      </trkpt>
      <trkpt lat="43.51781" lon="6.0555">
        <ele>345.4</ele>
        <time>2014-03-26T14:24:37Z</time>
      </trkpt>
      <trkpt lat="43.51789" lon="6.0555">
        <ele>344.6</ele>
        <time>2014-03-26T14:24:42Z</time>
      </trkpt>
      <trkpt lat="43.51798" lon="6.0555">
        <ele>345.8</ele>
        <time>2014-03-26T14:24:48Z</time>
      </trkpt>
      <trkpt lat="43.51799" lon="6.0555">
        <ele>345.5</ele>
        <time>2014-03-26T14:24:49Z</time>
      </trkpt>
      <trkpt lat="43.51814" lon="6.05552">
        <ele>345.3</ele>
        <time>2014-03-26T14:25:01Z</time>
      </trkpt>
      <trkpt lat="43.51822" lon="6.05555">
        <ele>345.9</ele>
        <time>2014-03-26T14:25:08Z</time>
      </trkpt>
      <trkpt lat="43.51831" lon="6.05558">
        <ele>345.1</ele>
        <time>2014-03-26T14:25:15Z</time>
      </trkpt>
      <trkpt lat="43.51839" lon="6.05562">
        <ele>345</ele>
        <time>2014-03-26T14:25:24Z</time>
      </trkpt>
      <trkpt lat="43.51847" lon="6.05565">
        <ele>344.1</ele>
        <time>2014-03-26T14:25:33Z</time>
      </trkpt>
      <trkpt lat="43.51855" lon="6.05565">
        <ele>344.7</ele>
        <time>2014-03-26T14:25:41Z</time>
      </trkpt>
      <trkpt lat="43.51863" lon="6.05565">
        <ele>345.4</ele>
        <time>2014-03-26T14:25:47Z</time>
      </trkpt>
      <trkpt lat="43.51871" lon="6.05563">
        <ele>345.4</ele>
        <time>2014-03-26T14:25:54Z</time>
      </trkpt>
      <trkpt lat="43.51872" lon="6.05562">
        <ele>345.3</ele>
        <time>2014-03-26T14:25:55Z</time>
      </trkpt>
      <trkpt lat="43.51886" lon="6.05551">
        <ele>346.5</ele>
        <time>2014-03-26T14:26:11Z</time>
      </trkpt>
      <trkpt lat="43.51892" lon="6.05543">
        <ele>348</ele>
        <time>2014-03-26T14:26:21Z</time>
      </trkpt>
      <trkpt lat="43.51897" lon="6.05534">
        <ele>350.1</ele>
        <time>2014-03-26T14:26:29Z</time>
      </trkpt>
      <trkpt lat="43.51902" lon="6.05524">
        <ele>350.2</ele>
        <time>2014-03-26T14:26:40Z</time>
      </trkpt>
      <trkpt lat="43.51908" lon="6.05515">
        <ele>352.3</ele>
        <time>2014-03-26T14:26:51Z</time>
      </trkpt>
      <trkpt lat="43.51915" lon="6.05509">
        <ele>353.5</ele>
        <time>2014-03-26T14:27:01Z</time>
      </trkpt>
      <trkpt lat="43.51916" lon="6.05509">
        <ele>353.3</ele>
        <time>2014-03-26T14:27:02Z</time>
      </trkpt>
      <trkpt lat="43.51931" lon="6.05502">
        <ele>353.5</ele>
        <time>2014-03-26T14:27:17Z</time>
      </trkpt>
      <trkpt lat="43.51939" lon="6.05498">
        <ele>353.8</ele>
        <time>2014-03-26T14:27:24Z</time>
      </trkpt>
      <trkpt lat="43.51947" lon="6.05493">
        <ele>353.7</ele>
        <time>2014-03-26T14:27:34Z</time>
      </trkpt>
      <trkpt lat="43.51956" lon="6.0549">
        <ele>354.3</ele>
        <time>2014-03-26T14:27:45Z</time>
      </trkpt>
      <trkpt lat="43.51964" lon="6.05492">
        <ele>354.2</ele>
        <time>2014-03-26T14:27:55Z</time>
      </trkpt>
      <trkpt lat="43.51972" lon="6.05496">
        <ele>354.8</ele>
        <time>2014-03-26T14:28:04Z</time>
      </trkpt>
      <trkpt lat="43.51973" lon="6.05496">
        <ele>355.2</ele>
        <time>2014-03-26T14:28:05Z</time>
      </trkpt>
      <trkpt lat="43.51989" lon="6.055">
        <ele>355.6</ele>
        <time>2014-03-26T14:28:22Z</time>
      </trkpt>
      <trkpt lat="43.51997" lon="6.055">
        <ele>356.2</ele>
        <time>2014-03-26T14:28:29Z</time>
      </trkpt>
      <trkpt lat="43.52006" lon="6.05496">
        <ele>355.4</ele>
        <time>2014-03-26T14:28:37Z</time>
      </trkpt>
      <trkpt lat="43.52014" lon="6.05494">
        <ele>355.6</ele>
        <time>2014-03-26T14:28:45Z</time>
      </trkpt>
      <trkpt lat="43.52022" lon="6.05491">
        <ele>353.8</ele>
        <time>2014-03-26T14:28:54Z</time>
      </trkpt>
      <trkpt lat="43.5203" lon="6.05492">
        <ele>353.8</ele>
        <time>2014-03-26T14:28:59Z</time>
      </trkpt>
      <trkpt lat="43.52038" lon="6.05493">
        <ele>353.4</ele>
        <time>2014-03-26T14:29:05Z</time>
      </trkpt>
      <trkpt lat="43.52046" lon="6.05489">
        <ele>353.3</ele>
        <time>2014-03-26T14:29:12Z</time>
      </trkpt>
      <trkpt lat="43.52047" lon="6.05489">
        <ele>353.3</ele>
        <time>2014-03-26T14:29:13Z</time>
      </trkpt>
      <trkpt lat="43.52061" lon="6.05479">
        <ele>352</ele>
        <time>2014-03-26T14:29:29Z</time>
      </trkpt>
      <trkpt lat="43.52068" lon="6.05473">
        <ele>352.4</ele>
        <time>2014-03-26T14:29:37Z</time>
      </trkpt>
      <trkpt lat="43.52075" lon="6.05467">
        <ele>352.4</ele>
        <time>2014-03-26T14:29:45Z</time>
      </trkpt>
      <trkpt lat="43.52082" lon="6.05462">
        <ele>352.7</ele>
        <time>2014-03-26T14:29:53Z</time>
      </trkpt>
      <trkpt lat="43.5209" lon="6.05457">
        <ele>352.2</ele>
        <time>2014-03-26T14:30:00Z</time>
      </trkpt>
      <trkpt lat="43.52098" lon="6.05455">
        <ele>353.6</ele>
        <time>2014-03-26T14:30:08Z</time>
      </trkpt>
      <trkpt lat="43.52107" lon="6.05452">
        <ele>352.8</ele>
        <time>2014-03-26T14:30:16Z</time>
      </trkpt>
      <trkpt lat="43.52108" lon="6.05452">
        <ele>352.9</ele>
        <time>2014-03-26T14:30:17Z</time>
      </trkpt>
      <trkpt lat="43.52123" lon="6.05451">
        <ele>354.3</ele>
        <time>2014-03-26T14:30:29Z</time>
      </trkpt>
      <trkpt lat="43.52131" lon="6.05449">
        <ele>353.9</ele>
        <time>2014-03-26T14:30:36Z</time>
      </trkpt>
      <trkpt lat="43.5214" lon="6.05451">
        <ele>354.6</ele>
        <time>2014-03-26T14:30:44Z</time>
      </trkpt>
      <trkpt lat="43.52148" lon="6.05453">
        <ele>354.9</ele>
        <time>2014-03-26T14:30:51Z</time>
      </trkpt>
      <trkpt lat="43.52157" lon="6.05454">
        <ele>354.9</ele>
        <time>2014-03-26T14:30:59Z</time>
      </trkpt>
      <trkpt lat="43.52165" lon="6.05451">
        <ele>353.6</ele>
        <time>2014-03-26T14:31:08Z</time>
      </trkpt>
      <trkpt lat="43.52173" lon="6.05448">
        <ele>355.2</ele>
        <time>2014-03-26T14:31:17Z</time>
      </trkpt>
      <trkpt lat="43.52182" lon="6.05447">
        <ele>355.3</ele>
        <time>2014-03-26T14:31:26Z</time>
      </trkpt>
      <trkpt lat="43.52183" lon="6.05447">
        <ele>355.3</ele>
        <time>2014-03-26T14:31:27Z</time>
      </trkpt>
      <trkpt lat="43.52199" lon="6.0545">
        <ele>357.2</ele>
        <time>2014-03-26T14:31:46Z</time>
      </trkpt>
      <trkpt lat="43.52207" lon="6.05452">
        <ele>357.1</ele>
        <time>2014-03-26T14:31:54Z</time>
      </trkpt>
      <trkpt lat="43.52216" lon="6.05455">
        <ele>359.2</ele>
        <time>2014-03-26T14:32:02Z</time>
      </trkpt>
      <trkpt lat="43.52224" lon="6.05456">
        <ele>361.2</ele>
        <time>2014-03-26T14:32:11Z</time>
      </trkpt>
      <trkpt lat="43.52233" lon="6.05456">
        <ele>362.5</ele>
        <time>2014-03-26T14:32:20Z</time>
      </trkpt>
      <trkpt lat="43.52242" lon="6.05455">
        <ele>360.8</ele>
        <time>2014-03-26T14:32:27Z</time>
      </trkpt>
      <trkpt lat="43.52242" lon="6.05455">
        <ele>361</ele>
        <time>2014-03-26T14:32:28Z</time>
      </trkpt>
      <trkpt lat="43.52257" lon="6.05445">
        <ele>364</ele>
        <time>2014-03-26T14:32:45Z</time>
      </trkpt>
      <trkpt lat="43.52264" lon="6.0544">
        <ele>362.9</ele>
        <time>2014-03-26T14:32:53Z</time>
      </trkpt>
      <trkpt lat="43.52272" lon="6.05437">
        <ele>362.6</ele>
        <time>2014-03-26T14:32:59Z</time>
      </trkpt>
      <trkpt lat="43.5228" lon="6.05433">
        <ele>363.3</ele>
        <time>2014-03-26T14:33:06Z</time>
      </trkpt>
      <trkpt lat="43.52288" lon="6.05431">
        <ele>363.1</ele>
        <time>2014-03-26T14:33:13Z</time>
      </trkpt>
      <trkpt lat="43.52296" lon="6.05429">
        <ele>364.7</ele>
        <time>2014-03-26T14:33:19Z</time>
      </trkpt>
      <trkpt lat="43.52304" lon="6.05429">
        <ele>364.1</ele>
        <time>2014-03-26T14:33:27Z</time>
      </trkpt>
      <trkpt lat="43.52312" lon="6.05431">
        <ele>364.5</ele>
        <time>2014-03-26T14:33:34Z</time>
      </trkpt>
      <trkpt lat="43.52313" lon="6.05432">
        <ele>364.3</ele>
        <time>2014-03-26T14:33:35Z</time>
      </trkpt>
      <trkpt lat="43.52329" lon="6.05435">
        <ele>364.4</ele>
        <time>2014-03-26T14:33:49Z</time>
      </trkpt>
      <trkpt lat="43.52337" lon="6.05438">
        <ele>366</ele>
        <time>2014-03-26T14:33:57Z</time>
      </trkpt>
      <trkpt lat="43.52345" lon="6.05441">
        <ele>365.2</ele>
        <time>2014-03-26T14:34:03Z</time>
      </trkpt>
      <trkpt lat="43.52353" lon="6.05444">
        <ele>364.8</ele>
        <time>2014-03-26T14:34:11Z</time>
      </trkpt>
      <trkpt lat="43.52362" lon="6.05445">
        <ele>365.1</ele>
        <time>2014-03-26T14:34:19Z</time>
      </trkpt>
      <trkpt lat="43.5237" lon="6.05446">
        <ele>365.9</ele>
        <time>2014-03-26T14:34:25Z</time>
      </trkpt>
      <trkpt lat="43.52379" lon="6.05448">
        <ele>366.8</ele>
        <time>2014-03-26T14:34:32Z</time>
      </trkpt>
      <trkpt lat="43.52388" lon="6.0545">
        <ele>366.7</ele>
        <time>2014-03-26T14:34:38Z</time>
      </trkpt>
      <trkpt lat="43.52389" lon="6.0545">
        <ele>366.9</ele>
        <time>2014-03-26T14:34:39Z</time>
      </trkpt>
      <trkpt lat="43.52405" lon="6.05448">
        <ele>368.1</ele>
        <time>2014-03-26T14:34:57Z</time>
      </trkpt>
      <trkpt lat="43.52412" lon="6.05442">
        <ele>368.5</ele>
        <time>2014-03-26T14:35:08Z</time>
      </trkpt>
      <trkpt lat="43.52417" lon="6.05431">
        <ele>369.4</ele>
        <time>2014-03-26T14:35:17Z</time>
      </trkpt>
      <trkpt lat="43.52423" lon="6.05423">
        <ele>369.9</ele>
        <time>2014-03-26T14:35:24Z</time>
      </trkpt>
      <trkpt lat="43.52429" lon="6.05415">
        <ele>370.3</ele>
        <time>2014-03-26T14:35:32Z</time>
      </trkpt>
      <trkpt lat="43.52436" lon="6.05409">
        <ele>371.2</ele>
        <time>2014-03-26T14:35:41Z</time>
      </trkpt>
      <trkpt lat="43.52437" lon="6.05408">
        <ele>371.2</ele>
        <time>2014-03-26T14:35:42Z</time>
      </trkpt>
      <trkpt lat="43.52451" lon="6.05396">
        <ele>373.1</ele>
        <time>2014-03-26T14:35:58Z</time>
      </trkpt>
      <trkpt lat="43.52459" lon="6.05391">
        <ele>373.5</ele>
        <time>2014-03-26T14:36:06Z</time>
      </trkpt>
      <trkpt lat="43.52466" lon="6.05386">
        <ele>374.4</ele>
        <time>2014-03-26T14:36:14Z</time>
      </trkpt>
      <trkpt lat="43.52474" lon="6.05382">
        <ele>374.1</ele>
        <time>2014-03-26T14:36:22Z</time>
      </trkpt>
      <trkpt lat="43.52483" lon="6.05379">
        <ele>374.2</ele>
        <time>2014-03-26T14:36:30Z</time>
      </trkpt>
      <trkpt lat="43.52491" lon="6.05376">
        <ele>373.1</ele>
        <time>2014-03-26T14:36:39Z</time>
      </trkpt>
      <trkpt lat="43.52499" lon="6.05376">
        <ele>373.1</ele>
        <time>2014-03-26T14:36:46Z</time>
      </trkpt>
      <trkpt lat="43.52501" lon="6.05376">
        <ele>373.2</ele>
        <time>2014-03-26T14:36:47Z</time>
      </trkpt>
      <trkpt lat="43.52516" lon="6.05378">
        <ele>372.8</ele>
        <time>2014-03-26T14:36:59Z</time>
      </trkpt>
      <trkpt lat="43.52525" lon="6.05379">
        <ele>371.9</ele>
        <time>2014-03-26T14:37:07Z</time>
      </trkpt>
      <trkpt lat="43.52533" lon="6.05381">
        <ele>370.4</ele>
        <time>2014-03-26T14:37:14Z</time>
      </trkpt>
      <trkpt lat="43.52541" lon="6.05384">
        <ele>371</ele>
        <time>2014-03-26T14:37:20Z</time>
      </trkpt>
      <trkpt lat="43.52549" lon="6.05386">
        <ele>371.8</ele>
        <time>2014-03-26T14:37:27Z</time>
      </trkpt>
      <trkpt lat="43.52557" lon="6.05385">
        <ele>370.7</ele>
        <time>2014-03-26T14:37:35Z</time>
      </trkpt>
      <trkpt lat="43.52566" lon="6.05383">
        <ele>370</ele>
        <time>2014-03-26T14:37:43Z</time>
      </trkpt>
      <trkpt lat="43.52573" lon="6.05377">
        <ele>369.8</ele>
        <time>2014-03-26T14:37:51Z</time>
      </trkpt>
      <trkpt lat="43.52574" lon="6.05377">
        <ele>370.1</ele>
        <time>2014-03-26T14:37:52Z</time>
      </trkpt>
      <trkpt lat="43.52587" lon="6.05365">
        <ele>371.6</ele>
        <time>2014-03-26T14:38:06Z</time>
      </trkpt>
      <trkpt lat="43.52595" lon="6.05361">
        <ele>373.6</ele>
        <time>2014-03-26T14:38:13Z</time>
      </trkpt>
      <trkpt lat="43.52602" lon="6.05355">
        <ele>374.7</ele>
        <time>2014-03-26T14:38:20Z</time>
      </trkpt>
      <trkpt lat="43.5261" lon="6.05351">
        <ele>375</ele>
        <time>2014-03-26T14:38:27Z</time>
      </trkpt>
      <trkpt lat="43.52618" lon="6.05346">
        <ele>374.7</ele>
        <time>2014-03-26T14:38:35Z</time>
      </trkpt>
      <trkpt lat="43.52625" lon="6.05339">
        <ele>375.5</ele>
        <time>2014-03-26T14:38:44Z</time>
      </trkpt>
      <trkpt lat="43.52633" lon="6.05336">
        <ele>376.4</ele>
        <time>2014-03-26T14:38:55Z</time>
      </trkpt>
      <trkpt lat="43.52635" lon="6.05337">
        <ele>376.6</ele>
        <time>2014-03-26T14:38:56Z</time>
      </trkpt>
      <trkpt lat="43.5265" lon="6.05343">
        <ele>377.3</ele>
        <time>2014-03-26T14:39:14Z</time>
      </trkpt>
      <trkpt lat="43.52658" lon="6.05348">
        <ele>378.2</ele>
        <time>2014-03-26T14:39:30Z</time>
      </trkpt>
      <trkpt lat="43.52666" lon="6.05353">
        <ele>377.3</ele>
        <time>2014-03-26T14:40:05Z</time>
      </trkpt>
      <trkpt lat="43.52666" lon="6.05352">
        <ele>378</ele>
        <time>2014-03-26T14:40:06Z</time>
      </trkpt>
      <trkpt lat="43.52682" lon="6.05345">
        <ele>377.7</ele>
        <time>2014-03-26T14:41:10Z</time>
      </trkpt>
      <trkpt lat="43.52683" lon="6.05345">
        <ele>377.7</ele>
        <time>2014-03-26T14:41:11Z</time>
      </trkpt>
      <trkpt lat="43.52697" lon="6.05335">
        <ele>376.4</ele>
        <time>2014-03-26T14:41:27Z</time>
      </trkpt>
      <trkpt lat="43.52705" lon="6.0533">
        <ele>375.3</ele>
        <time>2014-03-26T14:41:35Z</time>
      </trkpt>
      <trkpt lat="43.52713" lon="6.05326">
        <ele>374.5</ele>
        <time>2014-03-26T14:41:43Z</time>
      </trkpt>
      <trkpt lat="43.52721" lon="6.05322">
        <ele>375</ele>
        <time>2014-03-26T14:41:50Z</time>
      </trkpt>
      <trkpt lat="43.52729" lon="6.05319">
        <ele>372.9</ele>
        <time>2014-03-26T14:41:57Z</time>
      </trkpt>
      <trkpt lat="43.52737" lon="6.05315">
        <ele>374.9</ele>
        <time>2014-03-26T14:42:05Z</time>
      </trkpt>
      <trkpt lat="43.52744" lon="6.0531">
        <ele>373.5</ele>
        <time>2014-03-26T14:42:12Z</time>
      </trkpt>
      <trkpt lat="43.52745" lon="6.0531">
        <ele>373.3</ele>
        <time>2014-03-26T14:42:13Z</time>
      </trkpt>
      <trkpt lat="43.52759" lon="6.05301">
        <ele>373.8</ele>
        <time>2014-03-26T14:42:26Z</time>
      </trkpt>
      <trkpt lat="43.52766" lon="6.05296">
        <ele>374.5</ele>
        <time>2014-03-26T14:42:33Z</time>
      </trkpt>
      <trkpt lat="43.52774" lon="6.05292">
        <ele>373.7</ele>
        <time>2014-03-26T14:42:40Z</time>
      </trkpt>
      <trkpt lat="43.52781" lon="6.05286">
        <ele>373.4</ele>
        <time>2014-03-26T14:42:47Z</time>
      </trkpt>
      <trkpt lat="43.52789" lon="6.05281">
        <ele>373.9</ele>
        <time>2014-03-26T14:42:55Z</time>
      </trkpt>
      <trkpt lat="43.52797" lon="6.05276">
        <ele>376.2</ele>
        <time>2014-03-26T14:43:04Z</time>
      </trkpt>
      <trkpt lat="43.52805" lon="6.05271">
        <ele>375.1</ele>
        <time>2014-03-26T14:43:12Z</time>
      </trkpt>
      <trkpt lat="43.52812" lon="6.05266">
        <ele>375.4</ele>
        <time>2014-03-26T14:43:20Z</time>
      </trkpt>
      <trkpt lat="43.52813" lon="6.05266">
        <ele>375.3</ele>
        <time>2014-03-26T14:43:21Z</time>
      </trkpt>
      <trkpt lat="43.52828" lon="6.05257">
        <ele>376.5</ele>
        <time>2014-03-26T14:43:35Z</time>
      </trkpt>
      <trkpt lat="43.52832" lon="6.05248">
        <ele>375.3</ele>
        <time>2014-03-26T14:43:44Z</time>
      </trkpt>
      <trkpt lat="43.52835" lon="6.05237">
        <ele>376.3</ele>
        <time>2014-03-26T14:43:55Z</time>
      </trkpt>
      <trkpt lat="43.52844" lon="6.05239">
        <ele>376.3</ele>
        <time>2014-03-26T14:44:07Z</time>
      </trkpt>
      <trkpt lat="43.52852" lon="6.05244">
        <ele>376.9</ele>
        <time>2014-03-26T14:45:17Z</time>
      </trkpt>
      <trkpt lat="43.52852" lon="6.05244">
        <ele>377.1</ele>
        <time>2014-03-26T14:45:18Z</time>
      </trkpt>
      <trkpt lat="43.52849" lon="6.05257">
        <ele>377.4</ele>
        <time>2014-03-26T14:47:42Z</time>
      </trkpt>
      <trkpt lat="43.52852" lon="6.05279">
        <ele>378.5</ele>
        <time>2014-03-26T14:47:58Z</time>
      </trkpt>
      <trkpt lat="43.52855" lon="6.0529">
        <ele>377.5</ele>
        <time>2014-03-26T14:48:07Z</time>
      </trkpt>
      <trkpt lat="43.52859" lon="6.05299">
        <ele>379.5</ele>
        <time>2014-03-26T14:48:17Z</time>
      </trkpt>
      <trkpt lat="43.52864" lon="6.05309">
        <ele>379.9</ele>
        <time>2014-03-26T14:48:25Z</time>
      </trkpt>
      <trkpt lat="43.52867" lon="6.0532">
        <ele>380.7</ele>
        <time>2014-03-26T14:48:32Z</time>
      </trkpt>
      <trkpt lat="43.52868" lon="6.05332">
        <ele>381.3</ele>
        <time>2014-03-26T14:48:39Z</time>
      </trkpt>
      <trkpt lat="43.52869" lon="6.05343">
        <ele>380.9</ele>
        <time>2014-03-26T14:48:46Z</time>
      </trkpt>
      <trkpt lat="43.52869" lon="6.05344">
        <ele>381.6</ele>
        <time>2014-03-26T14:48:47Z</time>
      </trkpt>
      <trkpt lat="43.52869" lon="6.05367">
        <ele>383.3</ele>
        <time>2014-03-26T14:49:02Z</time>
      </trkpt>
      <trkpt lat="43.52869" lon="6.05378">
        <ele>382.5</ele>
        <time>2014-03-26T14:49:09Z</time>
      </trkpt>
      <trkpt lat="43.52869" lon="6.05389">
        <ele>382.7</ele>
        <time>2014-03-26T14:49:16Z</time>
      </trkpt>
      <trkpt lat="43.52871" lon="6.054">
        <ele>383.1</ele>
        <time>2014-03-26T14:49:24Z</time>
      </trkpt>
      <trkpt lat="43.52875" lon="6.0541">
        <ele>383.2</ele>
        <time>2014-03-26T14:49:33Z</time>
      </trkpt>
      <trkpt lat="43.52879" lon="6.0542">
        <ele>384.4</ele>
        <time>2014-03-26T14:49:41Z</time>
      </trkpt>
      <trkpt lat="43.52882" lon="6.05431">
        <ele>383.6</ele>
        <time>2014-03-26T14:49:50Z</time>
      </trkpt>
      <trkpt lat="43.52883" lon="6.05432">
        <ele>383.1</ele>
        <time>2014-03-26T14:49:51Z</time>
      </trkpt>
      <trkpt lat="43.52893" lon="6.0545">
        <ele>384.5</ele>
        <time>2014-03-26T14:50:05Z</time>
      </trkpt>
      <trkpt lat="43.52897" lon="6.0546">
        <ele>384.1</ele>
        <time>2014-03-26T14:50:13Z</time>
      </trkpt>
      <trkpt lat="43.52901" lon="6.0547">
        <ele>384.7</ele>
        <time>2014-03-26T14:50:19Z</time>
      </trkpt>
      <trkpt lat="43.52906" lon="6.05481">
        <ele>385.4</ele>
        <time>2014-03-26T14:50:26Z</time>
      </trkpt>
      <trkpt lat="43.5291" lon="6.05491">
        <ele>385.5</ele>
        <time>2014-03-26T14:50:33Z</time>
      </trkpt>
      <trkpt lat="43.52915" lon="6.055">
        <ele>385.9</ele>
        <time>2014-03-26T14:50:40Z</time>
      </trkpt>
      <trkpt lat="43.52919" lon="6.0551">
        <ele>385.5</ele>
        <time>2014-03-26T14:50:47Z</time>
      </trkpt>
      <trkpt lat="43.52923" lon="6.05521">
        <ele>385.3</ele>
        <time>2014-03-26T14:50:53Z</time>
      </trkpt>
      <trkpt lat="43.52924" lon="6.05522">
        <ele>385.8</ele>
        <time>2014-03-26T14:50:55Z</time>
      </trkpt>
      <trkpt lat="43.52928" lon="6.05542">
        <ele>386.1</ele>
        <time>2014-03-26T14:51:06Z</time>
      </trkpt>
      <trkpt lat="43.5293" lon="6.05553">
        <ele>384.7</ele>
        <time>2014-03-26T14:51:12Z</time>
      </trkpt>
      <trkpt lat="43.52932" lon="6.05564">
        <ele>384.7</ele>
        <time>2014-03-26T14:51:20Z</time>
      </trkpt>
      <trkpt lat="43.52934" lon="6.05576">
        <ele>385.4</ele>
        <time>2014-03-26T14:51:28Z</time>
      </trkpt>
      <trkpt lat="43.52937" lon="6.05587">
        <ele>385.9</ele>
        <time>2014-03-26T14:51:35Z</time>
      </trkpt>
      <trkpt lat="43.52938" lon="6.05598">
        <ele>383.1</ele>
        <time>2014-03-26T14:51:43Z</time>
      </trkpt>
      <trkpt lat="43.52939" lon="6.05609">
        <ele>383.5</ele>
        <time>2014-03-26T14:51:48Z</time>
      </trkpt>
      <trkpt lat="43.5294" lon="6.05619">
        <ele>384.7</ele>
        <time>2014-03-26T14:51:54Z</time>
      </trkpt>
      <trkpt lat="43.52941" lon="6.0563">
        <ele>385.9</ele>
        <time>2014-03-26T14:52:00Z</time>
      </trkpt>
      <trkpt lat="43.52941" lon="6.05632">
        <ele>385.9</ele>
        <time>2014-03-26T14:52:01Z</time>
      </trkpt>
      <trkpt lat="43.52942" lon="6.05653">
        <ele>385.3</ele>
        <time>2014-03-26T14:52:13Z</time>
      </trkpt>
      <trkpt lat="43.52942" lon="6.05663">
        <ele>384.7</ele>
        <time>2014-03-26T14:52:19Z</time>
      </trkpt>
      <trkpt lat="43.52942" lon="6.05675">
        <ele>384.5</ele>
        <time>2014-03-26T14:52:25Z</time>
      </trkpt>
      <trkpt lat="43.52942" lon="6.05687">
        <ele>384.1</ele>
        <time>2014-03-26T14:52:33Z</time>
      </trkpt>
      <trkpt lat="43.52941" lon="6.05698">
        <ele>382.5</ele>
        <time>2014-03-26T14:52:41Z</time>
      </trkpt>
      <trkpt lat="43.52943" lon="6.0571">
        <ele>384.6</ele>
        <time>2014-03-26T14:52:48Z</time>
      </trkpt>
      <trkpt lat="43.52941" lon="6.05721">
        <ele>384.6</ele>
        <time>2014-03-26T14:52:56Z</time>
      </trkpt>
      <trkpt lat="43.52943" lon="6.05733">
        <ele>383.9</ele>
        <time>2014-03-26T14:53:05Z</time>
      </trkpt>
      <trkpt lat="43.52943" lon="6.05734">
        <ele>384.1</ele>
        <time>2014-03-26T14:53:06Z</time>
      </trkpt>
      <trkpt lat="43.52946" lon="6.05754">
        <ele>384</ele>
        <time>2014-03-26T14:53:17Z</time>
      </trkpt>
      <trkpt lat="43.52948" lon="6.05764">
        <ele>384.8</ele>
        <time>2014-03-26T14:53:22Z</time>
      </trkpt>
      <trkpt lat="43.5295" lon="6.05775">
        <ele>383.8</ele>
        <time>2014-03-26T14:53:28Z</time>
      </trkpt>
      <trkpt lat="43.52952" lon="6.05787">
        <ele>384.2</ele>
        <time>2014-03-26T14:53:34Z</time>
      </trkpt>
      <trkpt lat="43.52954" lon="6.05798">
        <ele>384.3</ele>
        <time>2014-03-26T14:53:39Z</time>
      </trkpt>
      <trkpt lat="43.52952" lon="6.05809">
        <ele>384.5</ele>
        <time>2014-03-26T14:53:45Z</time>
      </trkpt>
      <trkpt lat="43.52952" lon="6.05819">
        <ele>382.5</ele>
        <time>2014-03-26T14:53:51Z</time>
      </trkpt>
      <trkpt lat="43.5295" lon="6.05831">
        <ele>382.3</ele>
        <time>2014-03-26T14:53:58Z</time>
      </trkpt>
      <trkpt lat="43.52951" lon="6.05844">
        <ele>381</ele>
        <time>2014-03-26T14:54:07Z</time>
      </trkpt>
      <trkpt lat="43.52951" lon="6.05845">
        <ele>380.7</ele>
        <time>2014-03-26T14:54:08Z</time>
      </trkpt>
      <trkpt lat="43.52952" lon="6.05867">
        <ele>381.6</ele>
        <time>2014-03-26T14:54:30Z</time>
      </trkpt>
      <trkpt lat="43.52954" lon="6.05877">
        <ele>382</ele>
        <time>2014-03-26T14:54:36Z</time>
      </trkpt>
      <trkpt lat="43.52952" lon="6.05888">
        <ele>379.9</ele>
        <time>2014-03-26T14:54:42Z</time>
      </trkpt>
      <trkpt lat="43.52953" lon="6.05899">
        <ele>378.4</ele>
        <time>2014-03-26T14:54:47Z</time>
      </trkpt>
      <trkpt lat="43.52953" lon="6.0591">
        <ele>378.9</ele>
        <time>2014-03-26T14:54:53Z</time>
      </trkpt>
      <trkpt lat="43.52954" lon="6.05921">
        <ele>378.5</ele>
        <time>2014-03-26T14:54:59Z</time>
      </trkpt>
      <trkpt lat="43.5295" lon="6.05932">
        <ele>379</ele>
        <time>2014-03-26T14:55:05Z</time>
      </trkpt>
      <trkpt lat="43.52949" lon="6.05944">
        <ele>378</ele>
        <time>2014-03-26T14:55:12Z</time>
      </trkpt>
      <trkpt lat="43.52949" lon="6.05945">
        <ele>378</ele>
        <time>2014-03-26T14:55:13Z</time>
      </trkpt>
      <trkpt lat="43.52945" lon="6.05967">
        <ele>377.1</ele>
        <time>2014-03-26T14:55:28Z</time>
      </trkpt>
      <trkpt lat="43.52942" lon="6.05977">
        <ele>377</ele>
        <time>2014-03-26T14:55:34Z</time>
      </trkpt>
      <trkpt lat="43.52938" lon="6.05987">
        <ele>376.9</ele>
        <time>2014-03-26T14:55:40Z</time>
      </trkpt>
      <trkpt lat="43.52934" lon="6.05996">
        <ele>377</ele>
        <time>2014-03-26T14:55:46Z</time>
      </trkpt>
      <trkpt lat="43.5293" lon="6.06005">
        <ele>377</ele>
        <time>2014-03-26T14:55:52Z</time>
      </trkpt>
      <trkpt lat="43.52925" lon="6.06015">
        <ele>376.9</ele>
        <time>2014-03-26T14:55:59Z</time>
      </trkpt>
      <trkpt lat="43.52918" lon="6.06022">
        <ele>377.1</ele>
        <time>2014-03-26T14:56:06Z</time>
      </trkpt>
      <trkpt lat="43.52909" lon="6.06025">
        <ele>376.7</ele>
        <time>2014-03-26T14:56:13Z</time>
      </trkpt>
      <trkpt lat="43.52908" lon="6.06026">
        <ele>376.3</ele>
        <time>2014-03-26T14:56:14Z</time>
      </trkpt>
      <trkpt lat="43.52893" lon="6.06027">
        <ele>374.3</ele>
        <time>2014-03-26T14:56:27Z</time>
      </trkpt>
      <trkpt lat="43.52886" lon="6.06021">
        <ele>376.2</ele>
        <time>2014-03-26T14:57:29Z</time>
      </trkpt>
      <trkpt lat="43.52886" lon="6.0602">
        <ele>376.4</ele>
        <time>2014-03-26T14:57:30Z</time>
      </trkpt>
      <trkpt lat="43.52876" lon="6.06017">
        <ele>375.2</ele>
        <time>2014-03-26T14:59:31Z</time>
      </trkpt>
      <trkpt lat="43.52861" lon="6.06011">
        <ele>373.4</ele>
        <time>2014-03-26T14:59:47Z</time>
      </trkpt>
      <trkpt lat="43.52853" lon="6.06008">
        <ele>374.3</ele>
        <time>2014-03-26T14:59:55Z</time>
      </trkpt>
      <trkpt lat="43.52845" lon="6.06005">
        <ele>373.3</ele>
        <time>2014-03-26T15:00:03Z</time>
      </trkpt>
      <trkpt lat="43.52836" lon="6.06001">
        <ele>372.9</ele>
        <time>2014-03-26T15:00:15Z</time>
      </trkpt>
      <trkpt lat="43.52828" lon="6.05996">
        <ele>372.7</ele>
        <time>2014-03-26T15:00:36Z</time>
      </trkpt>
      <trkpt lat="43.52827" lon="6.05996">
        <ele>373</ele>
        <time>2014-03-26T15:00:37Z</time>
      </trkpt>
      <trkpt lat="43.52813" lon="6.05987">
        <ele>372.5</ele>
        <time>2014-03-26T15:00:52Z</time>
      </trkpt>
      <trkpt lat="43.52804" lon="6.05984">
        <ele>372.2</ele>
        <time>2014-03-26T15:01:00Z</time>
      </trkpt>
      <trkpt lat="43.52797" lon="6.0598">
        <ele>372.2</ele>
        <time>2014-03-26T15:01:07Z</time>
      </trkpt>
      <trkpt lat="43.52789" lon="6.05976">
        <ele>371.8</ele>
        <time>2014-03-26T15:01:14Z</time>
      </trkpt>
      <trkpt lat="43.52781" lon="6.05972">
        <ele>371.4</ele>
        <time>2014-03-26T15:01:21Z</time>
      </trkpt>
      <trkpt lat="43.52774" lon="6.05967">
        <ele>372.2</ele>
        <time>2014-03-26T15:01:28Z</time>
      </trkpt>
      <trkpt lat="43.52766" lon="6.05962">
        <ele>372.2</ele>
        <time>2014-03-26T15:01:35Z</time>
      </trkpt>
      <trkpt lat="43.52759" lon="6.05957">
        <ele>371.6</ele>
        <time>2014-03-26T15:01:41Z</time>
      </trkpt>
      <trkpt lat="43.52757" lon="6.05956">
        <ele>371.8</ele>
        <time>2014-03-26T15:01:42Z</time>
      </trkpt>
      <trkpt lat="43.52743" lon="6.05946">
        <ele>371.6</ele>
        <time>2014-03-26T15:01:57Z</time>
      </trkpt>
      <trkpt lat="43.52735" lon="6.05942">
        <ele>370.4</ele>
        <time>2014-03-26T15:02:05Z</time>
      </trkpt>
      <trkpt lat="43.52728" lon="6.05936">
        <ele>371.1</ele>
        <time>2014-03-26T15:02:14Z</time>
      </trkpt>
      <trkpt lat="43.52721" lon="6.05929">
        <ele>370.5</ele>
        <time>2014-03-26T15:02:22Z</time>
      </trkpt>
      <trkpt lat="43.52714" lon="6.05922">
        <ele>371.9</ele>
        <time>2014-03-26T15:02:29Z</time>
      </trkpt>
      <trkpt lat="43.52707" lon="6.05917">
        <ele>371.8</ele>
        <time>2014-03-26T15:02:34Z</time>
      </trkpt>
      <trkpt lat="43.527" lon="6.05912">
        <ele>371</ele>
        <time>2014-03-26T15:02:40Z</time>
      </trkpt>
      <trkpt lat="43.52692" lon="6.05906">
        <ele>370</ele>
        <time>2014-03-26T15:02:47Z</time>
      </trkpt>
      <trkpt lat="43.52691" lon="6.05905">
        <ele>370.2</ele>
        <time>2014-03-26T15:02:48Z</time>
      </trkpt>
      <trkpt lat="43.52679" lon="6.05894">
        <ele>369.9</ele>
        <time>2014-03-26T15:03:00Z</time>
      </trkpt>
      <trkpt lat="43.52672" lon="6.05887">
        <ele>369.7</ele>
        <time>2014-03-26T15:03:07Z</time>
      </trkpt>
      <trkpt lat="43.52665" lon="6.0588">
        <ele>368.7</ele>
        <time>2014-03-26T15:03:13Z</time>
      </trkpt>
      <trkpt lat="43.52658" lon="6.05874">
        <ele>368.8</ele>
        <time>2014-03-26T15:03:18Z</time>
      </trkpt>
      <trkpt lat="43.5265" lon="6.05869">
        <ele>367.5</ele>
        <time>2014-03-26T15:03:24Z</time>
      </trkpt>
      <trkpt lat="43.52643" lon="6.05864">
        <ele>368.5</ele>
        <time>2014-03-26T15:03:31Z</time>
      </trkpt>
      <trkpt lat="43.52634" lon="6.05863">
        <ele>368.4</ele>
        <time>2014-03-26T15:03:39Z</time>
      </trkpt>
      <trkpt lat="43.52626" lon="6.05863">
        <ele>368</ele>
        <time>2014-03-26T15:03:46Z</time>
      </trkpt>
      <trkpt lat="43.52619" lon="6.05862">
        <ele>366.5</ele>
        <time>2014-03-26T15:03:52Z</time>
      </trkpt>
      <trkpt lat="43.52617" lon="6.05861">
        <ele>366.7</ele>
        <time>2014-03-26T15:03:53Z</time>
      </trkpt>
      <trkpt lat="43.52602" lon="6.05856">
        <ele>369.3</ele>
        <time>2014-03-26T15:04:05Z</time>
      </trkpt>
      <trkpt lat="43.52594" lon="6.05855">
        <ele>368.1</ele>
        <time>2014-03-26T15:04:12Z</time>
      </trkpt>
      <trkpt lat="43.52586" lon="6.05852">
        <ele>367.8</ele>
        <time>2014-03-26T15:04:19Z</time>
      </trkpt>
      <trkpt lat="43.52578" lon="6.05848">
        <ele>367.1</ele>
        <time>2014-03-26T15:04:26Z</time>
      </trkpt>
      <trkpt lat="43.52571" lon="6.05844">
        <ele>368</ele>
        <time>2014-03-26T15:04:32Z</time>
      </trkpt>
      <trkpt lat="43.52563" lon="6.0584">
        <ele>365.5</ele>
        <time>2014-03-26T15:04:38Z</time>
      </trkpt>
      <trkpt lat="43.52554" lon="6.05836">
        <ele>365.9</ele>
        <time>2014-03-26T15:04:44Z</time>
      </trkpt>
      <trkpt lat="43.52547" lon="6.05833">
        <ele>365.9</ele>
        <time>2014-03-26T15:04:51Z</time>
      </trkpt>
      <trkpt lat="43.52539" lon="6.05829">
        <ele>365.7</ele>
        <time>2014-03-26T15:04:57Z</time>
      </trkpt>
      <trkpt lat="43.52537" lon="6.05829">
        <ele>366.4</ele>
        <time>2014-03-26T15:04:58Z</time>
      </trkpt>
      <trkpt lat="43.52521" lon="6.05824">
        <ele>365.4</ele>
        <time>2014-03-26T15:05:11Z</time>
      </trkpt>
      <trkpt lat="43.52514" lon="6.05825">
        <ele>361</ele>
        <time>2014-03-26T15:05:17Z</time>
      </trkpt>
      <trkpt lat="43.52505" lon="6.05827">
        <ele>361.5</ele>
        <time>2014-03-26T15:05:24Z</time>
      </trkpt>
      <trkpt lat="43.52498" lon="6.0583">
        <ele>362.8</ele>
        <time>2014-03-26T15:05:31Z</time>
      </trkpt>
      <trkpt lat="43.52491" lon="6.05835">
        <ele>362.3</ele>
        <time>2014-03-26T15:05:37Z</time>
      </trkpt>
      <trkpt lat="43.52482" lon="6.05839">
        <ele>361.5</ele>
        <time>2014-03-26T15:05:43Z</time>
      </trkpt>
      <trkpt lat="43.52475" lon="6.05841">
        <ele>361.4</ele>
        <time>2014-03-26T15:05:49Z</time>
      </trkpt>
      <trkpt lat="43.52466" lon="6.05845">
        <ele>361.5</ele>
        <time>2014-03-26T15:05:55Z</time>
      </trkpt>
      <trkpt lat="43.52458" lon="6.05849">
        <ele>360.5</ele>
        <time>2014-03-26T15:06:03Z</time>
      </trkpt>
      <trkpt lat="43.52457" lon="6.0585">
        <ele>360.6</ele>
        <time>2014-03-26T15:06:04Z</time>
      </trkpt>
      <trkpt lat="43.52442" lon="6.0586">
        <ele>359.8</ele>
        <time>2014-03-26T15:06:15Z</time>
      </trkpt>
      <trkpt lat="43.52435" lon="6.05865">
        <ele>360</ele>
        <time>2014-03-26T15:06:22Z</time>
      </trkpt>
      <trkpt lat="43.52428" lon="6.05871">
        <ele>359.2</ele>
        <time>2014-03-26T15:06:29Z</time>
      </trkpt>
      <trkpt lat="43.52422" lon="6.0588">
        <ele>358.7</ele>
        <time>2014-03-26T15:06:36Z</time>
      </trkpt>
      <trkpt lat="43.52415" lon="6.05885">
        <ele>358.1</ele>
        <time>2014-03-26T15:06:42Z</time>
      </trkpt>
      <trkpt lat="43.52408" lon="6.05891">
        <ele>358.2</ele>
        <time>2014-03-26T15:06:49Z</time>
      </trkpt>
      <trkpt lat="43.52401" lon="6.05896">
        <ele>355</ele>
        <time>2014-03-26T15:06:56Z</time>
      </trkpt>
      <trkpt lat="43.52394" lon="6.05903">
        <ele>352.7</ele>
        <time>2014-03-26T15:07:03Z</time>
      </trkpt>
      <trkpt lat="43.52387" lon="6.0591">
        <ele>353.8</ele>
        <time>2014-03-26T15:07:10Z</time>
      </trkpt>
      <trkpt lat="43.52385" lon="6.0591">
        <ele>353.7</ele>
        <time>2014-03-26T15:07:11Z</time>
      </trkpt>
      <trkpt lat="43.52375" lon="6.05926">
        <ele>352.5</ele>
        <time>2014-03-26T15:07:21Z</time>
      </trkpt>
      <trkpt lat="43.52369" lon="6.05932">
        <ele>353.7</ele>
        <time>2014-03-26T15:07:26Z</time>
      </trkpt>
      <trkpt lat="43.52367" lon="6.05944">
        <ele>350.1</ele>
        <time>2014-03-26T15:07:33Z</time>
      </trkpt>
      <trkpt lat="43.5236" lon="6.05949">
        <ele>352.2</ele>
        <time>2014-03-26T15:07:38Z</time>
      </trkpt>
      <trkpt lat="43.52356" lon="6.05958">
        <ele>351.5</ele>
        <time>2014-03-26T15:07:44Z</time>
      </trkpt>
      <trkpt lat="43.52349" lon="6.05966">
        <ele>350.8</ele>
        <time>2014-03-26T15:07:50Z</time>
      </trkpt>
      <trkpt lat="43.52343" lon="6.05974">
        <ele>349.1</ele>
        <time>2014-03-26T15:07:56Z</time>
      </trkpt>
      <trkpt lat="43.52336" lon="6.05981">
        <ele>349.5</ele>
        <time>2014-03-26T15:08:02Z</time>
      </trkpt>
      <trkpt lat="43.52329" lon="6.05985">
        <ele>349.2</ele>
        <time>2014-03-26T15:08:06Z</time>
      </trkpt>
      <trkpt lat="43.52322" lon="6.05988">
        <ele>349.2</ele>
        <time>2014-03-26T15:08:11Z</time>
      </trkpt>
      <trkpt lat="43.5232" lon="6.05988">
        <ele>349.3</ele>
        <time>2014-03-26T15:08:12Z</time>
      </trkpt>
      <trkpt lat="43.52306" lon="6.05993">
        <ele>348.2</ele>
        <time>2014-03-26T15:08:23Z</time>
      </trkpt>
      <trkpt lat="43.52298" lon="6.05996">
        <ele>348</ele>
        <time>2014-03-26T15:08:31Z</time>
      </trkpt>
      <trkpt lat="43.5229" lon="6.05998">
        <ele>347.1</ele>
        <time>2014-03-26T15:08:36Z</time>
      </trkpt>
      <trkpt lat="43.52282" lon="6.06003">
        <ele>347.9</ele>
        <time>2014-03-26T15:08:43Z</time>
      </trkpt>
      <trkpt lat="43.52274" lon="6.06008">
        <ele>347.6</ele>
        <time>2014-03-26T15:08:51Z</time>
      </trkpt>
      <trkpt lat="43.52266" lon="6.06012">
        <ele>346.6</ele>
        <time>2014-03-26T15:08:57Z</time>
      </trkpt>
      <trkpt lat="43.52258" lon="6.06015">
        <ele>346</ele>
        <time>2014-03-26T15:09:02Z</time>
      </trkpt>
      <trkpt lat="43.5225" lon="6.06017">
        <ele>345.4</ele>
        <time>2014-03-26T15:09:08Z</time>
      </trkpt>
      <trkpt lat="43.52243" lon="6.06019">
        <ele>344.7</ele>
        <time>2014-03-26T15:09:14Z</time>
      </trkpt>
      <trkpt lat="43.52241" lon="6.06019">
        <ele>344.6</ele>
        <time>2014-03-26T15:09:15Z</time>
      </trkpt>
      <trkpt lat="43.52226" lon="6.06023">
        <ele>345.2</ele>
        <time>2014-03-26T15:09:27Z</time>
      </trkpt>
      <trkpt lat="43.52219" lon="6.06027">
        <ele>344.9</ele>
        <time>2014-03-26T15:09:33Z</time>
      </trkpt>
      <trkpt lat="43.52211" lon="6.06028">
        <ele>345.3</ele>
        <time>2014-03-26T15:09:37Z</time>
      </trkpt>
      <trkpt lat="43.52203" lon="6.06027">
        <ele>346</ele>
        <time>2014-03-26T15:09:44Z</time>
      </trkpt>
      <trkpt lat="43.52195" lon="6.06024">
        <ele>345.6</ele>
        <time>2014-03-26T15:09:50Z</time>
      </trkpt>
      <trkpt lat="43.52187" lon="6.0602">
        <ele>346</ele>
        <time>2014-03-26T15:09:55Z</time>
      </trkpt>
      <trkpt lat="43.52179" lon="6.06017">
        <ele>344.9</ele>
        <time>2014-03-26T15:10:02Z</time>
      </trkpt>
      <trkpt lat="43.52171" lon="6.06011">
        <ele>345.1</ele>
        <time>2014-03-26T15:10:11Z</time>
      </trkpt>
      <trkpt lat="43.52164" lon="6.06005">
        <ele>342.5</ele>
        <time>2014-03-26T15:10:19Z</time>
      </trkpt>
      <trkpt lat="43.52163" lon="6.06005">
        <ele>342.6</ele>
        <time>2014-03-26T15:10:20Z</time>
      </trkpt>
      <trkpt lat="43.52149" lon="6.05996">
        <ele>341.4</ele>
        <time>2014-03-26T15:10:33Z</time>
      </trkpt>
      <trkpt lat="43.52141" lon="6.05991">
        <ele>341</ele>
        <time>2014-03-26T15:10:41Z</time>
      </trkpt>
      <trkpt lat="43.52133" lon="6.05985">
        <ele>341.1</ele>
        <time>2014-03-26T15:10:48Z</time>
      </trkpt>
      <trkpt lat="43.52125" lon="6.05983">
        <ele>341.3</ele>
        <time>2014-03-26T15:10:54Z</time>
      </trkpt>
      <trkpt lat="43.52117" lon="6.05979">
        <ele>340.8</ele>
        <time>2014-03-26T15:11:00Z</time>
      </trkpt>
      <trkpt lat="43.52108" lon="6.05977">
        <ele>339.7</ele>
        <time>2014-03-26T15:11:07Z</time>
      </trkpt>
      <trkpt lat="43.521" lon="6.05976">
        <ele>337.9</ele>
        <time>2014-03-26T15:11:15Z</time>
      </trkpt>
      <trkpt lat="43.52091" lon="6.05973">
        <ele>337.6</ele>
        <time>2014-03-26T15:11:22Z</time>
      </trkpt>
      <trkpt lat="43.5209" lon="6.05973">
        <ele>338</ele>
        <time>2014-03-26T15:11:23Z</time>
      </trkpt>
      <trkpt lat="43.52075" lon="6.05969">
        <ele>337.6</ele>
        <time>2014-03-26T15:11:36Z</time>
      </trkpt>
      <trkpt lat="43.52066" lon="6.05967">
        <ele>338.1</ele>
        <time>2014-03-26T15:11:44Z</time>
      </trkpt>
      <trkpt lat="43.52058" lon="6.05964">
        <ele>337.2</ele>
        <time>2014-03-26T15:11:51Z</time>
      </trkpt>
      <trkpt lat="43.52051" lon="6.0596">
        <ele>336.7</ele>
        <time>2014-03-26T15:11:57Z</time>
      </trkpt>
      <trkpt lat="43.52043" lon="6.05956">
        <ele>336.8</ele>
        <time>2014-03-26T15:12:02Z</time>
      </trkpt>
      <trkpt lat="43.52035" lon="6.05953">
        <ele>336.8</ele>
        <time>2014-03-26T15:12:09Z</time>
      </trkpt>
      <trkpt lat="43.52027" lon="6.0595">
        <ele>335.7</ele>
        <time>2014-03-26T15:12:15Z</time>
      </trkpt>
      <trkpt lat="43.52019" lon="6.05945">
        <ele>335.8</ele>
        <time>2014-03-26T15:12:20Z</time>
      </trkpt>
      <trkpt lat="43.52012" lon="6.05938">
        <ele>336.2</ele>
        <time>2014-03-26T15:12:25Z</time>
      </trkpt>
      <trkpt lat="43.52011" lon="6.05937">
        <ele>336</ele>
        <time>2014-03-26T15:12:26Z</time>
      </trkpt>
      <trkpt lat="43.51999" lon="6.05925">
        <ele>333.9</ele>
        <time>2014-03-26T15:12:41Z</time>
      </trkpt>
      <trkpt lat="43.51991" lon="6.0592">
        <ele>334.5</ele>
        <time>2014-03-26T15:12:48Z</time>
      </trkpt>
      <trkpt lat="43.51984" lon="6.05916">
        <ele>333.7</ele>
        <time>2014-03-26T15:12:55Z</time>
      </trkpt>
      <trkpt lat="43.51977" lon="6.05911">
        <ele>332.8</ele>
        <time>2014-03-26T15:13:02Z</time>
      </trkpt>
      <trkpt lat="43.51969" lon="6.05906">
        <ele>334.3</ele>
        <time>2014-03-26T15:13:10Z</time>
      </trkpt>
      <trkpt lat="43.51963" lon="6.05899">
        <ele>333.2</ele>
        <time>2014-03-26T15:13:17Z</time>
      </trkpt>
      <trkpt lat="43.51957" lon="6.05891">
        <ele>332.7</ele>
        <time>2014-03-26T15:13:23Z</time>
      </trkpt>
      <trkpt lat="43.51951" lon="6.05885">
        <ele>333.4</ele>
        <time>2014-03-26T15:13:28Z</time>
      </trkpt>
      <trkpt lat="43.5195" lon="6.05884">
        <ele>333.7</ele>
        <time>2014-03-26T15:13:29Z</time>
      </trkpt>
      <trkpt lat="43.51938" lon="6.05871">
        <ele>332.6</ele>
        <time>2014-03-26T15:13:41Z</time>
      </trkpt>
      <trkpt lat="43.51931" lon="6.05864">
        <ele>332.3</ele>
        <time>2014-03-26T15:13:48Z</time>
      </trkpt>
      <trkpt lat="43.51924" lon="6.05858">
        <ele>331.4</ele>
        <time>2014-03-26T15:13:54Z</time>
      </trkpt>
      <trkpt lat="43.51916" lon="6.05853">
        <ele>329.4</ele>
        <time>2014-03-26T15:14:01Z</time>
      </trkpt>
      <trkpt lat="43.51908" lon="6.05849">
        <ele>331.1</ele>
        <time>2014-03-26T15:14:10Z</time>
      </trkpt>
      <trkpt lat="43.519" lon="6.05845">
        <ele>330.2</ele>
        <time>2014-03-26T15:14:18Z</time>
      </trkpt>
      <trkpt lat="43.51892" lon="6.05841">
        <ele>329.9</ele>
        <time>2014-03-26T15:14:26Z</time>
      </trkpt>
      <trkpt lat="43.51885" lon="6.05835">
        <ele>330.7</ele>
        <time>2014-03-26T15:14:32Z</time>
      </trkpt>
      <trkpt lat="43.51884" lon="6.05834">
        <ele>330.9</ele>
        <time>2014-03-26T15:14:33Z</time>
      </trkpt>
      <trkpt lat="43.51869" lon="6.05827">
        <ele>329.8</ele>
        <time>2014-03-26T15:14:45Z</time>
      </trkpt>
      <trkpt lat="43.51862" lon="6.05823">
        <ele>329.2</ele>
        <time>2014-03-26T15:14:52Z</time>
      </trkpt>
      <trkpt lat="43.51855" lon="6.05816">
        <ele>328.4</ele>
        <time>2014-03-26T15:14:58Z</time>
      </trkpt>
      <trkpt lat="43.51848" lon="6.05811">
        <ele>328.6</ele>
        <time>2014-03-26T15:15:05Z</time>
      </trkpt>
      <trkpt lat="43.5184" lon="6.05808">
        <ele>327.6</ele>
        <time>2014-03-26T15:15:11Z</time>
      </trkpt>
      <trkpt lat="43.51832" lon="6.05805">
        <ele>328.7</ele>
        <time>2014-03-26T15:15:18Z</time>
      </trkpt>
      <trkpt lat="43.51824" lon="6.05804">
        <ele>327.8</ele>
        <time>2014-03-26T15:15:25Z</time>
      </trkpt>
      <trkpt lat="43.51816" lon="6.05804">
        <ele>328.7</ele>
        <time>2014-03-26T15:15:33Z</time>
      </trkpt>
      <trkpt lat="43.51815" lon="6.05805">
        <ele>328.2</ele>
        <time>2014-03-26T15:15:34Z</time>
      </trkpt>
      <trkpt lat="43.51801" lon="6.05813">
        <ele>326.6</ele>
        <time>2014-03-26T15:15:48Z</time>
      </trkpt>
      <trkpt lat="43.51792" lon="6.05817">
        <ele>327.9</ele>
        <time>2014-03-26T15:15:57Z</time>
      </trkpt>
      <trkpt lat="43.51785" lon="6.05821">
        <ele>327.1</ele>
        <time>2014-03-26T15:16:02Z</time>
      </trkpt>
      <trkpt lat="43.51777" lon="6.05826">
        <ele>328.5</ele>
        <time>2014-03-26T15:16:08Z</time>
      </trkpt>
      <trkpt lat="43.51769" lon="6.05832">
        <ele>328.5</ele>
        <time>2014-03-26T15:16:15Z</time>
      </trkpt>
      <trkpt lat="43.51763" lon="6.05837">
        <ele>329.6</ele>
        <time>2014-03-26T15:16:21Z</time>
      </trkpt>
      <trkpt lat="43.51755" lon="6.05842">
        <ele>329</ele>
        <time>2014-03-26T15:16:28Z</time>
      </trkpt>
      <trkpt lat="43.51748" lon="6.05847">
        <ele>330.1</ele>
        <time>2014-03-26T15:16:34Z</time>
      </trkpt>
      <trkpt lat="43.51747" lon="6.05848">
        <ele>329.8</ele>
        <time>2014-03-26T15:16:35Z</time>
      </trkpt>
      <trkpt lat="43.51733" lon="6.05856">
        <ele>327.2</ele>
        <time>2014-03-26T15:16:47Z</time>
      </trkpt>
      <trkpt lat="43.51725" lon="6.0586">
        <ele>327.9</ele>
        <time>2014-03-26T15:16:53Z</time>
      </trkpt>
      <trkpt lat="43.51717" lon="6.05865">
        <ele>328.9</ele>
        <time>2014-03-26T15:17:00Z</time>
      </trkpt>
      <trkpt lat="43.5171" lon="6.05871">
        <ele>328.3</ele>
        <time>2014-03-26T15:17:06Z</time>
      </trkpt>
      <trkpt lat="43.51702" lon="6.05874">
        <ele>327.8</ele>
        <time>2014-03-26T15:17:12Z</time>
      </trkpt>
      <trkpt lat="43.51695" lon="6.05879">
        <ele>327.5</ele>
        <time>2014-03-26T15:17:18Z</time>
      </trkpt>
      <trkpt lat="43.51686" lon="6.05882">
        <ele>327</ele>
        <time>2014-03-26T15:17:24Z</time>
      </trkpt>
      <trkpt lat="43.51678" lon="6.05886">
        <ele>325.9</ele>
        <time>2014-03-26T15:17:31Z</time>
      </trkpt>
      <trkpt lat="43.5167" lon="6.05889">
        <ele>327.2</ele>
        <time>2014-03-26T15:17:39Z</time>
      </trkpt>
      <trkpt lat="43.51669" lon="6.05889">
        <ele>327.2</ele>
        <time>2014-03-26T15:17:40Z</time>
      </trkpt>
      <trkpt lat="43.51655" lon="6.05897">
        <ele>325.4</ele>
        <time>2014-03-26T15:17:52Z</time>
      </trkpt>
      <trkpt lat="43.51646" lon="6.05902">
        <ele>325.8</ele>
        <time>2014-03-26T15:18:00Z</time>
      </trkpt>
      <trkpt lat="43.51639" lon="6.05905">
        <ele>325.4</ele>
        <time>2014-03-26T15:18:07Z</time>
      </trkpt>
      <trkpt lat="43.51631" lon="6.0591">
        <ele>324.2</ele>
        <time>2014-03-26T15:18:14Z</time>
      </trkpt>
      <trkpt lat="43.51623" lon="6.05912">
        <ele>324.9</ele>
        <time>2014-03-26T15:18:21Z</time>
      </trkpt>
      <trkpt lat="43.51615" lon="6.05916">
        <ele>325.3</ele>
        <time>2014-03-26T15:18:35Z</time>
      </trkpt>
      <trkpt lat="43.51607" lon="6.05912">
        <ele>324.9</ele>
        <time>2014-03-26T15:19:28Z</time>
      </trkpt>
      <trkpt lat="43.51606" lon="6.05911">
        <ele>324.7</ele>
        <time>2014-03-26T15:19:29Z</time>
      </trkpt>
      <trkpt lat="43.51599" lon="6.05918">
        <ele>324.3</ele>
        <time>2014-03-26T15:20:50Z</time>
      </trkpt>
      <trkpt lat="43.51583" lon="6.05926">
        <ele>323.1</ele>
        <time>2014-03-26T15:21:09Z</time>
      </trkpt>
      <trkpt lat="43.51577" lon="6.05935">
        <ele>320.9</ele>
        <time>2014-03-26T15:21:18Z</time>
      </trkpt>
      <trkpt lat="43.51572" lon="6.05944">
        <ele>320.3</ele>
        <time>2014-03-26T15:21:25Z</time>
      </trkpt>
      <trkpt lat="43.51568" lon="6.05953">
        <ele>320.2</ele>
        <time>2014-03-26T15:21:32Z</time>
      </trkpt>
      <trkpt lat="43.51562" lon="6.05963">
        <ele>319.1</ele>
        <time>2014-03-26T15:21:40Z</time>
      </trkpt>
      <trkpt lat="43.51557" lon="6.05973">
        <ele>317.7</ele>
        <time>2014-03-26T15:21:48Z</time>
      </trkpt>
      <trkpt lat="43.51552" lon="6.05982">
        <ele>316.8</ele>
        <time>2014-03-26T15:21:55Z</time>
      </trkpt>
      <trkpt lat="43.51551" lon="6.05983">
        <ele>316.8</ele>
        <time>2014-03-26T15:21:56Z</time>
      </trkpt>
      <trkpt lat="43.5154" lon="6.05996">
        <ele>315.1</ele>
        <time>2014-03-26T15:22:09Z</time>
      </trkpt>
      <trkpt lat="43.51531" lon="6.05998">
        <ele>314.1</ele>
        <time>2014-03-26T15:22:17Z</time>
      </trkpt>
      <trkpt lat="43.51522" lon="6.06">
        <ele>312</ele>
        <time>2014-03-26T15:22:26Z</time>
      </trkpt>
      <trkpt lat="43.51515" lon="6.06007">
        <ele>311</ele>
        <time>2014-03-26T15:22:36Z</time>
      </trkpt>
      <trkpt lat="43.51508" lon="6.06014">
        <ele>308.4</ele>
        <time>2014-03-26T15:22:44Z</time>
      </trkpt>
      <trkpt lat="43.51501" lon="6.0602">
        <ele>307.7</ele>
        <time>2014-03-26T15:22:52Z</time>
      </trkpt>
      <trkpt lat="43.51495" lon="6.06028">
        <ele>306.5</ele>
        <time>2014-03-26T15:23:00Z</time>
      </trkpt>
      <trkpt lat="43.51494" lon="6.06029">
        <ele>306.3</ele>
        <time>2014-03-26T15:23:01Z</time>
      </trkpt>
      <trkpt lat="43.51482" lon="6.06043">
        <ele>304.8</ele>
        <time>2014-03-26T15:23:14Z</time>
      </trkpt>
      <trkpt lat="43.51475" lon="6.06049">
        <ele>304.5</ele>
        <time>2014-03-26T15:23:21Z</time>
      </trkpt>
      <trkpt lat="43.51467" lon="6.06055">
        <ele>303.5</ele>
        <time>2014-03-26T15:23:28Z</time>
      </trkpt>
      <trkpt lat="43.5146" lon="6.06063">
        <ele>303.4</ele>
        <time>2014-03-26T15:23:36Z</time>
      </trkpt>
      <trkpt lat="43.51455" lon="6.06073">
        <ele>304.2</ele>
        <time>2014-03-26T15:23:45Z</time>
      </trkpt>
      <trkpt lat="43.51449" lon="6.06078">
        <ele>302.6</ele>
        <time>2014-03-26T15:23:52Z</time>
      </trkpt>
      <trkpt lat="43.5144" lon="6.0608">
        <ele>302.3</ele>
        <time>2014-03-26T15:23:58Z</time>
      </trkpt>
      <trkpt lat="43.51432" lon="6.06081">
        <ele>301.4</ele>
        <time>2014-03-26T15:24:06Z</time>
      </trkpt>
      <trkpt lat="43.51431" lon="6.06081">
        <ele>300.5</ele>
        <time>2014-03-26T15:24:07Z</time>
      </trkpt>
      <trkpt lat="43.51415" lon="6.0608">
        <ele>300.3</ele>
        <time>2014-03-26T15:24:22Z</time>
      </trkpt>
      <trkpt lat="43.51406" lon="6.06079">
        <ele>299.9</ele>
        <time>2014-03-26T15:24:29Z</time>
      </trkpt>
      <trkpt lat="43.51398" lon="6.06078">
        <ele>298.9</ele>
        <time>2014-03-26T15:24:35Z</time>
      </trkpt>
      <trkpt lat="43.51389" lon="6.06077">
        <ele>298.4</ele>
        <time>2014-03-26T15:24:43Z</time>
      </trkpt>
      <trkpt lat="43.5138" lon="6.06076">
        <ele>298.2</ele>
        <time>2014-03-26T15:24:53Z</time>
      </trkpt>
      <trkpt lat="43.51372" lon="6.06073">
        <ele>297.6</ele>
        <time>2014-03-26T15:25:00Z</time>
      </trkpt>
      <trkpt lat="43.51364" lon="6.06072">
        <ele>297.3</ele>
        <time>2014-03-26T15:25:07Z</time>
      </trkpt>
      <trkpt lat="43.51363" lon="6.06072">
        <ele>297.1</ele>
        <time>2014-03-26T15:25:08Z</time>
      </trkpt>
      <trkpt lat="43.51347" lon="6.06069">
        <ele>297.5</ele>
        <time>2014-03-26T15:25:20Z</time>
      </trkpt>
      <trkpt lat="43.51339" lon="6.06066">
        <ele>296.8</ele>
        <time>2014-03-26T15:25:27Z</time>
      </trkpt>
      <trkpt lat="43.51332" lon="6.06064">
        <ele>296</ele>
        <time>2014-03-26T15:25:34Z</time>
      </trkpt>
      <trkpt lat="43.51323" lon="6.0606">
        <ele>295.1</ele>
        <time>2014-03-26T15:25:40Z</time>
      </trkpt>
      <trkpt lat="43.51316" lon="6.06057">
        <ele>295.2</ele>
        <time>2014-03-26T15:25:46Z</time>
      </trkpt>
      <trkpt lat="43.51308" lon="6.06056">
        <ele>294</ele>
        <time>2014-03-26T15:25:51Z</time>
      </trkpt>
      <trkpt lat="43.513" lon="6.06055">
        <ele>293.7</ele>
        <time>2014-03-26T15:25:57Z</time>
      </trkpt>
      <trkpt lat="43.51291" lon="6.06053">
        <ele>294.7</ele>
        <time>2014-03-26T15:26:03Z</time>
      </trkpt>
      <trkpt lat="43.51283" lon="6.0605">
        <ele>293.7</ele>
        <time>2014-03-26T15:26:09Z</time>
      </trkpt>
      <trkpt lat="43.51282" lon="6.0605">
        <ele>293.9</ele>
        <time>2014-03-26T15:26:10Z</time>
      </trkpt>
      <trkpt lat="43.51266" lon="6.06045">
        <ele>293</ele>
        <time>2014-03-26T15:26:22Z</time>
      </trkpt>
      <trkpt lat="43.51258" lon="6.06044">
        <ele>292.3</ele>
        <time>2014-03-26T15:26:29Z</time>
      </trkpt>
      <trkpt lat="43.5125" lon="6.06042">
        <ele>291.5</ele>
        <time>2014-03-26T15:26:37Z</time>
      </trkpt>
      <trkpt lat="43.51241" lon="6.0604">
        <ele>292.2</ele>
        <time>2014-03-26T15:26:45Z</time>
      </trkpt>
      <trkpt lat="43.51232" lon="6.06038">
        <ele>292.3</ele>
        <time>2014-03-26T15:26:52Z</time>
      </trkpt>
      <trkpt lat="43.51224" lon="6.06036">
        <ele>293.3</ele>
        <time>2014-03-26T15:26:59Z</time>
      </trkpt>
      <trkpt lat="43.51216" lon="6.06031">
        <ele>293</ele>
        <time>2014-03-26T15:27:06Z</time>
      </trkpt>
      <trkpt lat="43.51209" lon="6.06025">
        <ele>290.6</ele>
        <time>2014-03-26T15:27:14Z</time>
      </trkpt>
      <trkpt lat="43.51208" lon="6.06024">
        <ele>291.1</ele>
        <time>2014-03-26T15:27:15Z</time>
      </trkpt>
      <trkpt lat="43.51194" lon="6.06017">
        <ele>292.2</ele>
        <time>2014-03-26T15:27:26Z</time>
      </trkpt>
      <trkpt lat="43.51186" lon="6.06011">
        <ele>291.9</ele>
        <time>2014-03-26T15:27:34Z</time>
      </trkpt>
      <trkpt lat="43.51178" lon="6.06007">
        <ele>290.8</ele>
        <time>2014-03-26T15:27:41Z</time>
      </trkpt>
      <trkpt lat="43.51171" lon="6.06002">
        <ele>291.9</ele>
        <time>2014-03-26T15:27:48Z</time>
      </trkpt>
      <trkpt lat="43.51163" lon="6.05998">
        <ele>291.8</ele>
        <time>2014-03-26T15:27:54Z</time>
      </trkpt>
      <trkpt lat="43.51156" lon="6.05994">
        <ele>290.6</ele>
        <time>2014-03-26T15:28:02Z</time>
      </trkpt>
      <trkpt lat="43.51148" lon="6.0599">
        <ele>291.2</ele>
        <time>2014-03-26T15:28:09Z</time>
      </trkpt>
      <trkpt lat="43.5114" lon="6.05987">
        <ele>291.2</ele>
        <time>2014-03-26T15:28:15Z</time>
      </trkpt>
      <trkpt lat="43.51132" lon="6.05982">
        <ele>290.1</ele>
        <time>2014-03-26T15:28:24Z</time>
      </trkpt>
      <trkpt lat="43.51131" lon="6.05982">
        <ele>290.5</ele>
        <time>2014-03-26T15:28:25Z</time>
      </trkpt>
      <trkpt lat="43.51117" lon="6.05974">
        <ele>289.5</ele>
        <time>2014-03-26T15:28:44Z</time>
      </trkpt>
      <trkpt lat="43.51109" lon="6.05974">
        <ele>287.7</ele>
        <time>2014-03-26T15:28:50Z</time>
      </trkpt>
      <trkpt lat="43.51101" lon="6.05977">
        <ele>286.2</ele>
        <time>2014-03-26T15:28:59Z</time>
      </trkpt>
      <trkpt lat="43.51093" lon="6.05983">
        <ele>285.1</ele>
        <time>2014-03-26T15:29:06Z</time>
      </trkpt>
      <trkpt lat="43.51085" lon="6.05987">
        <ele>285.5</ele>
        <time>2014-03-26T15:29:12Z</time>
      </trkpt>
      <trkpt lat="43.51079" lon="6.05995">
        <ele>285.1</ele>
        <time>2014-03-26T15:29:19Z</time>
      </trkpt>
      <trkpt lat="43.51071" lon="6.05999">
        <ele>283.3</ele>
        <time>2014-03-26T15:29:28Z</time>
      </trkpt>
      <trkpt lat="43.5107" lon="6.06">
        <ele>283.3</ele>
        <time>2014-03-26T15:29:29Z</time>
      </trkpt>
      <trkpt lat="43.51058" lon="6.06014">
        <ele>280.7</ele>
        <time>2014-03-26T15:29:54Z</time>
      </trkpt>
      <trkpt lat="43.5105" lon="6.06013">
        <ele>280.4</ele>
        <time>2014-03-26T15:30:00Z</time>
      </trkpt>
      <trkpt lat="43.51041" lon="6.06015">
        <ele>280.1</ele>
        <time>2014-03-26T15:30:20Z</time>
      </trkpt>
      <trkpt lat="43.51032" lon="6.06015">
        <ele>278.6</ele>
        <time>2014-03-26T15:30:32Z</time>
      </trkpt>
      <trkpt lat="43.51031" lon="6.06015">
        <ele>278.6</ele>
        <time>2014-03-26T15:30:33Z</time>
      </trkpt>
      <trkpt lat="43.51019" lon="6.06021">
        <ele>279.2</ele>
        <time>2014-03-26T15:31:37Z</time>
      </trkpt>
      <trkpt lat="43.51018" lon="6.06021">
        <ele>278.8</ele>
        <time>2014-03-26T15:31:38Z</time>
      </trkpt>
      <trkpt lat="43.51009" lon="6.06039">
        <ele>277.9</ele>
        <time>2014-03-26T15:32:04Z</time>
      </trkpt>
      <trkpt lat="43.51003" lon="6.06046">
        <ele>277.5</ele>
        <time>2014-03-26T15:32:13Z</time>
      </trkpt>
      <trkpt lat="43.50995" lon="6.06048">
        <ele>277.5</ele>
        <time>2014-03-26T15:32:18Z</time>
      </trkpt>
      <trkpt lat="43.50987" lon="6.06047">
        <ele>277.5</ele>
        <time>2014-03-26T15:32:22Z</time>
      </trkpt>
      <trkpt lat="43.5098" lon="6.06044">
        <ele>278.2</ele>
        <time>2014-03-26T15:32:25Z</time>
      </trkpt>
      <trkpt lat="43.50971" lon="6.06046">
        <ele>277.1</ele>
        <time>2014-03-26T15:32:32Z</time>
      </trkpt>
      <trkpt lat="43.50964" lon="6.06051">
        <ele>277.6</ele>
        <time>2014-03-26T15:32:43Z</time>
      </trkpt>
      <trkpt lat="43.50963" lon="6.06052">
        <ele>277.8</ele>
        <time>2014-03-26T15:32:44Z</time>
      </trkpt>
      <trkpt lat="43.50954" lon="6.06068">
        <ele>278.1</ele>
        <time>2014-03-26T15:32:58Z</time>
      </trkpt>
      <trkpt lat="43.50951" lon="6.06078">
        <ele>278</ele>
        <time>2014-03-26T15:33:06Z</time>
      </trkpt>
      <trkpt lat="43.50946" lon="6.06087">
        <ele>277.8</ele>
        <time>2014-03-26T15:33:12Z</time>
      </trkpt>
      <trkpt lat="43.50939" lon="6.06092">
        <ele>277.9</ele>
        <time>2014-03-26T15:33:16Z</time>
      </trkpt>
      <trkpt lat="43.50932" lon="6.06098">
        <ele>277.6</ele>
        <time>2014-03-26T15:33:21Z</time>
      </trkpt>
      <trkpt lat="43.50924" lon="6.06103">
        <ele>278.2</ele>
        <time>2014-03-26T15:33:27Z</time>
      </trkpt>
      <trkpt lat="43.50917" lon="6.06108">
        <ele>278.3</ele>
        <time>2014-03-26T15:33:33Z</time>
      </trkpt>
      <trkpt lat="43.50913" lon="6.06117">
        <ele>277.3</ele>
        <time>2014-03-26T15:33:41Z</time>
      </trkpt>
      <trkpt lat="43.50906" lon="6.06126">
        <ele>276.1</ele>
        <time>2014-03-26T15:33:50Z</time>
      </trkpt>
      <trkpt lat="43.50906" lon="6.06126">
        <ele>275.8</ele>
        <time>2014-03-26T15:33:51Z</time>
      </trkpt>
      <trkpt lat="43.5089" lon="6.0613">
        <ele>275.1</ele>
        <time>2014-03-26T15:34:01Z</time>
      </trkpt>
      <trkpt lat="43.50881" lon="6.0613">
        <ele>274.4</ele>
        <time>2014-03-26T15:34:06Z</time>
      </trkpt>
      <trkpt lat="43.50872" lon="6.06132">
        <ele>273.6</ele>
        <time>2014-03-26T15:34:13Z</time>
      </trkpt>
      <trkpt lat="43.50865" lon="6.06135">
        <ele>273.1</ele>
        <time>2014-03-26T15:34:20Z</time>
      </trkpt>
      <trkpt lat="43.50857" lon="6.06138">
        <ele>273</ele>
        <time>2014-03-26T15:34:28Z</time>
      </trkpt>
      <trkpt lat="43.50849" lon="6.06143">
        <ele>273.4</ele>
        <time>2014-03-26T15:34:35Z</time>
      </trkpt>
      <trkpt lat="43.50843" lon="6.06151">
        <ele>272</ele>
        <time>2014-03-26T15:34:43Z</time>
      </trkpt>
      <trkpt lat="43.50838" lon="6.06161">
        <ele>271.9</ele>
        <time>2014-03-26T15:34:51Z</time>
      </trkpt>
      <trkpt lat="43.50837" lon="6.06162">
        <ele>271.9</ele>
        <time>2014-03-26T15:34:52Z</time>
      </trkpt>
      <trkpt lat="43.50821" lon="6.06168">
        <ele>270.3</ele>
        <time>2014-03-26T15:35:04Z</time>
      </trkpt>
      <trkpt lat="43.50813" lon="6.06169">
        <ele>270.1</ele>
        <time>2014-03-26T15:35:11Z</time>
      </trkpt>
      <trkpt lat="43.50804" lon="6.06166">
        <ele>270.4</ele>
        <time>2014-03-26T15:35:17Z</time>
      </trkpt>
      <trkpt lat="43.50797" lon="6.06164">
        <ele>268.9</ele>
        <time>2014-03-26T15:35:22Z</time>
      </trkpt>
      <trkpt lat="43.50788" lon="6.06162">
        <ele>269.5</ele>
        <time>2014-03-26T15:35:30Z</time>
      </trkpt>
      <trkpt lat="43.5078" lon="6.06161">
        <ele>267.6</ele>
        <time>2014-03-26T15:35:38Z</time>
      </trkpt>
      <trkpt lat="43.50772" lon="6.06156">
        <ele>268.7</ele>
        <time>2014-03-26T15:35:45Z</time>
      </trkpt>
      <trkpt lat="43.50764" lon="6.06152">
        <ele>266.5</ele>
        <time>2014-03-26T15:35:53Z</time>
      </trkpt>
      <trkpt lat="43.50763" lon="6.06151">
        <ele>267.2</ele>
        <time>2014-03-26T15:35:54Z</time>
      </trkpt>
      <trkpt lat="43.50751" lon="6.06139">
        <ele>268.1</ele>
        <time>2014-03-26T15:36:07Z</time>
      </trkpt>
      <trkpt lat="43.50743" lon="6.06136">
        <ele>268.5</ele>
        <time>2014-03-26T15:36:13Z</time>
      </trkpt>
      <trkpt lat="43.50735" lon="6.0613">
        <ele>269.2</ele>
        <time>2014-03-26T15:36:18Z</time>
      </trkpt>
      <trkpt lat="43.50727" lon="6.06124">
        <ele>269.3</ele>
        <time>2014-03-26T15:36:24Z</time>
      </trkpt>
      <trkpt lat="43.50722" lon="6.06117">
        <ele>269.4</ele>
        <time>2014-03-26T15:36:29Z</time>
      </trkpt>
      <trkpt lat="43.50716" lon="6.06108">
        <ele>269.8</ele>
        <time>2014-03-26T15:36:37Z</time>
      </trkpt>
      <trkpt lat="43.50709" lon="6.061">
        <ele>270.7</ele>
        <time>2014-03-26T15:36:43Z</time>
      </trkpt>
      <trkpt lat="43.50702" lon="6.06094">
        <ele>269.9</ele>
        <time>2014-03-26T15:36:51Z</time>
      </trkpt>
      <trkpt lat="43.50696" lon="6.06088">
        <ele>269.8</ele>
        <time>2014-03-26T15:36:59Z</time>
      </trkpt>
      <trkpt lat="43.50694" lon="6.06087">
        <ele>269.8</ele>
        <time>2014-03-26T15:37:00Z</time>
      </trkpt>
      <trkpt lat="43.5068" lon="6.06078">
        <ele>268.5</ele>
        <time>2014-03-26T15:37:16Z</time>
      </trkpt>
      <trkpt lat="43.50672" lon="6.06074">
        <ele>268.2</ele>
        <time>2014-03-26T15:37:22Z</time>
      </trkpt>
      <trkpt lat="43.50664" lon="6.0607">
        <ele>264.3</ele>
        <time>2014-03-26T15:37:29Z</time>
      </trkpt>
      <trkpt lat="43.50656" lon="6.06067">
        <ele>264.3</ele>
        <time>2014-03-26T15:37:34Z</time>
      </trkpt>
      <trkpt lat="43.50648" lon="6.06063">
        <ele>264.7</ele>
        <time>2014-03-26T15:37:40Z</time>
      </trkpt>
      <trkpt lat="43.5064" lon="6.06064">
        <ele>263.1</ele>
        <time>2014-03-26T15:37:47Z</time>
      </trkpt>
      <trkpt lat="43.50632" lon="6.06066">
        <ele>261</ele>
        <time>2014-03-26T15:37:57Z</time>
      </trkpt>
      <trkpt lat="43.50624" lon="6.06066">
        <ele>260.2</ele>
        <time>2014-03-26T15:38:04Z</time>
      </trkpt>
      <trkpt lat="43.50622" lon="6.06065">
        <ele>260</ele>
        <time>2014-03-26T15:38:05Z</time>
      </trkpt>
      <trkpt lat="43.50608" lon="6.06066">
        <ele>257.6</ele>
        <time>2014-03-26T15:38:17Z</time>
      </trkpt>
      <trkpt lat="43.50599" lon="6.06066">
        <ele>257.2</ele>
        <time>2014-03-26T15:38:23Z</time>
      </trkpt>
      <trkpt lat="43.50591" lon="6.0607">
        <ele>255.7</ele>
        <time>2014-03-26T15:38:32Z</time>
      </trkpt>
      <trkpt lat="43.50584" lon="6.06077">
        <ele>254.3</ele>
        <time>2014-03-26T15:38:42Z</time>
      </trkpt>
      <trkpt lat="43.50581" lon="6.06088">
        <ele>253.1</ele>
        <time>2014-03-26T15:38:50Z</time>
      </trkpt>
      <trkpt lat="43.50577" lon="6.06098">
        <ele>251.9</ele>
        <time>2014-03-26T15:38:57Z</time>
      </trkpt>
      <trkpt lat="43.50573" lon="6.06107">
        <ele>251.6</ele>
        <time>2014-03-26T15:39:03Z</time>
      </trkpt>
      <trkpt lat="43.50566" lon="6.06111">
        <ele>251.2</ele>
        <time>2014-03-26T15:39:08Z</time>
      </trkpt>
      <trkpt lat="43.50564" lon="6.06112">
        <ele>251</ele>
        <time>2014-03-26T15:39:09Z</time>
      </trkpt>
      <trkpt lat="43.50552" lon="6.06115">
        <ele>250.4</ele>
        <time>2014-03-26T15:39:16Z</time>
      </trkpt>
      <trkpt lat="43.50544" lon="6.06115">
        <ele>250.9</ele>
        <time>2014-03-26T15:39:20Z</time>
      </trkpt>
      <trkpt lat="43.50535" lon="6.06117">
        <ele>250.4</ele>
        <time>2014-03-26T15:39:24Z</time>
      </trkpt>
      <trkpt lat="43.50527" lon="6.06121">
        <ele>249.6</ele>
        <time>2014-03-26T15:39:30Z</time>
      </trkpt>
      <trkpt lat="43.5052" lon="6.06127">
        <ele>250</ele>
        <time>2014-03-26T15:39:36Z</time>
      </trkpt>
      <trkpt lat="43.50512" lon="6.06129">
        <ele>248.8</ele>
        <time>2014-03-26T15:39:48Z</time>
      </trkpt>
      <trkpt lat="43.50508" lon="6.0614">
        <ele>248.5</ele>
        <time>2014-03-26T15:39:57Z</time>
      </trkpt>
      <trkpt lat="43.50501" lon="6.06147">
        <ele>246.4</ele>
        <time>2014-03-26T15:40:07Z</time>
      </trkpt>
      <trkpt lat="43.50493" lon="6.06151">
        <ele>245.9</ele>
        <time>2014-03-26T15:40:17Z</time>
      </trkpt>
      <trkpt lat="43.50492" lon="6.06151">
        <ele>245.3</ele>
        <time>2014-03-26T15:40:18Z</time>
      </trkpt>
      <trkpt lat="43.50479" lon="6.06163">
        <ele>243.1</ele>
        <time>2014-03-26T15:40:35Z</time>
      </trkpt>
      <trkpt lat="43.50471" lon="6.06168">
        <ele>242.9</ele>
        <time>2014-03-26T15:40:42Z</time>
      </trkpt>
      <trkpt lat="43.50464" lon="6.06175">
        <ele>241.7</ele>
        <time>2014-03-26T15:40:51Z</time>
      </trkpt>
      <trkpt lat="43.50458" lon="6.06182">
        <ele>240.8</ele>
        <time>2014-03-26T15:40:57Z</time>
      </trkpt>
      <trkpt lat="43.50454" lon="6.06193">
        <ele>240.1</ele>
        <time>2014-03-26T15:41:06Z</time>
      </trkpt>
      <trkpt lat="43.50447" lon="6.062">
        <ele>238.7</ele>
        <time>2014-03-26T15:41:13Z</time>
      </trkpt>
      <trkpt lat="43.50444" lon="6.06214">
        <ele>236</ele>
        <time>2014-03-26T15:41:22Z</time>
      </trkpt>
      <trkpt lat="43.50443" lon="6.06216">
        <ele>236.2</ele>
        <time>2014-03-26T15:41:24Z</time>
      </trkpt>
      <trkpt lat="43.50428" lon="6.06229">
        <ele>232</ele>
        <time>2014-03-26T15:41:42Z</time>
      </trkpt>
      <trkpt lat="43.50415" lon="6.06234">
        <ele>232</ele>
        <time>2014-03-26T15:41:54Z</time>
      </trkpt>
      <trkpt lat="43.50406" lon="6.06242">
        <ele>229.9</ele>
        <time>2014-03-26T15:42:00Z</time>
      </trkpt>
      <trkpt lat="43.504" lon="6.06251">
        <ele>229.6</ele>
        <time>2014-03-26T15:42:05Z</time>
      </trkpt>
      <trkpt lat="43.50397" lon="6.06261">
        <ele>229.8</ele>
        <time>2014-03-26T15:42:10Z</time>
      </trkpt>
      <trkpt lat="43.50392" lon="6.06271">
        <ele>229.5</ele>
        <time>2014-03-26T15:42:18Z</time>
      </trkpt>
      <trkpt lat="43.50384" lon="6.06276">
        <ele>227.9</ele>
        <time>2014-03-26T15:42:33Z</time>
      </trkpt>
      <trkpt lat="43.50383" lon="6.06276">
        <ele>227.9</ele>
        <time>2014-03-26T15:42:34Z</time>
      </trkpt>
      <trkpt lat="43.50368" lon="6.06283">
        <ele>228.1</ele>
        <time>2014-03-26T15:42:46Z</time>
      </trkpt>
      <trkpt lat="43.50362" lon="6.06289">
        <ele>228.4</ele>
        <time>2014-03-26T15:42:52Z</time>
      </trkpt>
      <trkpt lat="43.50355" lon="6.06296">
        <ele>227.8</ele>
        <time>2014-03-26T15:42:58Z</time>
      </trkpt>
      <trkpt lat="43.50349" lon="6.06305">
        <ele>227.7</ele>
        <time>2014-03-26T15:43:04Z</time>
      </trkpt>
      <trkpt lat="43.50344" lon="6.06313">
        <ele>227.8</ele>
        <time>2014-03-26T15:43:11Z</time>
      </trkpt>
      <trkpt lat="43.50336" lon="6.06318">
        <ele>227.1</ele>
        <time>2014-03-26T15:43:16Z</time>
      </trkpt>
      <trkpt lat="43.5033" lon="6.06325">
        <ele>225.7</ele>
        <time>2014-03-26T15:43:24Z</time>
      </trkpt>
      <trkpt lat="43.50322" lon="6.06325">
        <ele>225.5</ele>
        <time>2014-03-26T15:43:28Z</time>
      </trkpt>
      <trkpt lat="43.50314" lon="6.06327">
        <ele>225.6</ele>
        <time>2014-03-26T15:43:33Z</time>
      </trkpt>
      <trkpt lat="43.50305" lon="6.06331">
        <ele>224.4</ele>
        <time>2014-03-26T15:43:42Z</time>
      </trkpt>
      <trkpt lat="43.50305" lon="6.06332">
        <ele>224.8</ele>
        <time>2014-03-26T15:43:43Z</time>
      </trkpt>
      <trkpt lat="43.5029" lon="6.0634">
        <ele>223.1</ele>
        <time>2014-03-26T15:43:58Z</time>
      </trkpt>
      <trkpt lat="43.50282" lon="6.06339">
        <ele>223.5</ele>
        <time>2014-03-26T15:44:02Z</time>
      </trkpt>
      <trkpt lat="43.50274" lon="6.06334">
        <ele>223.6</ele>
        <time>2014-03-26T15:44:11Z</time>
      </trkpt>
      <trkpt lat="43.50267" lon="6.06328">
        <ele>224</ele>
        <time>2014-03-26T15:44:23Z</time>
      </trkpt>
      <trkpt lat="43.5026" lon="6.06335">
        <ele>223.8</ele>
        <time>2014-03-26T15:46:21Z</time>
      </trkpt>
      <trkpt lat="43.5026" lon="6.06335">
        <ele>223.8</ele>
        <time>2014-03-26T15:46:22Z</time>
      </trkpt>
      <trkpt lat="43.50245" lon="6.06332">
        <ele>222</ele>
        <time>2014-03-26T15:46:57Z</time>
      </trkpt>
      <trkpt lat="43.50237" lon="6.06336">
        <ele>220.7</ele>
        <time>2014-03-26T15:47:11Z</time>
      </trkpt>
      <trkpt lat="43.50229" lon="6.06341">
        <ele>218.3</ele>
        <time>2014-03-26T15:47:28Z</time>
      </trkpt>
      <trkpt lat="43.50228" lon="6.06341">
        <ele>218.2</ele>
        <time>2014-03-26T15:47:29Z</time>
      </trkpt>
      <trkpt lat="43.50214" lon="6.06356">
        <ele>215.5</ele>
        <time>2014-03-26T15:47:52Z</time>
      </trkpt>
      <trkpt lat="43.50206" lon="6.0636">
        <ele>213.9</ele>
        <time>2014-03-26T15:48:03Z</time>
      </trkpt>
      <trkpt lat="43.50198" lon="6.06363">
        <ele>212.6</ele>
        <time>2014-03-26T15:48:16Z</time>
      </trkpt>
      <trkpt lat="43.50189" lon="6.06366">
        <ele>211.7</ele>
        <time>2014-03-26T15:48:30Z</time>
      </trkpt>
      <trkpt lat="43.50189" lon="6.06367">
        <ele>211.6</ele>
        <time>2014-03-26T15:48:31Z</time>
      </trkpt>
      <trkpt lat="43.50175" lon="6.06375">
        <ele>209.9</ele>
        <time>2014-03-26T15:48:44Z</time>
      </trkpt>
      <trkpt lat="43.50167" lon="6.06371">
        <ele>208.2</ele>
        <time>2014-03-26T15:48:53Z</time>
      </trkpt>
      <trkpt lat="43.50158" lon="6.06369">
        <ele>206.8</ele>
        <time>2014-03-26T15:49:00Z</time>
      </trkpt>
      <trkpt lat="43.50149" lon="6.06373">
        <ele>205.7</ele>
        <time>2014-03-26T15:49:10Z</time>
      </trkpt>
      <trkpt lat="43.50142" lon="6.0637">
        <ele>204.6</ele>
        <time>2014-03-26T15:49:19Z</time>
      </trkpt>
      <trkpt lat="43.50134" lon="6.06374">
        <ele>202.8</ele>
        <time>2014-03-26T15:49:28Z</time>
      </trkpt>
      <trkpt lat="43.50126" lon="6.06378">
        <ele>203</ele>
        <time>2014-03-26T15:49:35Z</time>
      </trkpt>
      <trkpt lat="43.50125" lon="6.06379">
        <ele>202.2</ele>
        <time>2014-03-26T15:49:36Z</time>
      </trkpt>
      <trkpt lat="43.5011" lon="6.06381">
        <ele>201.3</ele>
        <time>2014-03-26T15:49:51Z</time>
      </trkpt>
      <trkpt lat="43.50105" lon="6.0637">
        <ele>200.7</ele>
        <time>2014-03-26T15:50:01Z</time>
      </trkpt>
      <trkpt lat="43.50098" lon="6.06365">
        <ele>199.7</ele>
        <time>2014-03-26T15:50:09Z</time>
      </trkpt>
      <trkpt lat="43.50092" lon="6.06359">
        <ele>199</ele>
        <time>2014-03-26T15:50:15Z</time>
      </trkpt>
      <trkpt lat="43.50086" lon="6.0635">
        <ele>196.8</ele>
        <time>2014-03-26T15:50:25Z</time>
      </trkpt>
      <trkpt lat="43.50077" lon="6.06348">
        <ele>196.3</ele>
        <time>2014-03-26T15:50:31Z</time>
      </trkpt>
      <trkpt lat="43.50069" lon="6.06343">
        <ele>196.6</ele>
        <time>2014-03-26T15:50:35Z</time>
      </trkpt>
      <trkpt lat="43.50062" lon="6.06341">
        <ele>196.3</ele>
        <time>2014-03-26T15:50:39Z</time>
      </trkpt>
      <trkpt lat="43.5006" lon="6.06341">
        <ele>196</ele>
        <time>2014-03-26T15:50:40Z</time>
      </trkpt>
      <trkpt lat="43.50046" lon="6.06336">
        <ele>195.4</ele>
        <time>2014-03-26T15:50:48Z</time>
      </trkpt>
      <trkpt lat="43.50037" lon="6.06334">
        <ele>194.9</ele>
        <time>2014-03-26T15:50:55Z</time>
      </trkpt>
      <trkpt lat="43.5003" lon="6.06332">
        <ele>194.1</ele>
        <time>2014-03-26T15:51:01Z</time>
      </trkpt>
      <trkpt lat="43.50022" lon="6.06329">
        <ele>192.6</ele>
        <time>2014-03-26T15:51:10Z</time>
      </trkpt>
      <trkpt lat="43.50015" lon="6.06322">
        <ele>191.4</ele>
        <time>2014-03-26T15:51:18Z</time>
      </trkpt>
      <trkpt lat="43.5001" lon="6.06316">
        <ele>190.7</ele>
        <time>2014-03-26T15:51:24Z</time>
      </trkpt>
      <trkpt lat="43.50002" lon="6.06313">
        <ele>189.9</ele>
        <time>2014-03-26T15:51:29Z</time>
      </trkpt>
      <trkpt lat="43.49994" lon="6.06314">
        <ele>187.9</ele>
        <time>2014-03-26T15:51:36Z</time>
      </trkpt>
      <trkpt lat="43.49985" lon="6.06314">
        <ele>185.6</ele>
        <time>2014-03-26T15:51:42Z</time>
      </trkpt>
      <trkpt lat="43.49984" lon="6.06315">
        <ele>185.8</ele>
        <time>2014-03-26T15:51:43Z</time>
      </trkpt>
      <trkpt lat="43.49969" lon="6.06314">
        <ele>184.4</ele>
        <time>2014-03-26T15:51:53Z</time>
      </trkpt>
      <trkpt lat="43.49963" lon="6.0632">
        <ele>183.8</ele>
        <time>2014-03-26T15:52:03Z</time>
      </trkpt>
      <trkpt lat="43.49961" lon="6.06331">
        <ele>183.5</ele>
        <time>2014-03-26T15:52:10Z</time>
      </trkpt>
      <trkpt lat="43.49958" lon="6.06341">
        <ele>184.2</ele>
        <time>2014-03-26T15:52:17Z</time>
      </trkpt>
      <trkpt lat="43.49951" lon="6.06348">
        <ele>184</ele>
        <time>2014-03-26T15:52:24Z</time>
      </trkpt>
      <trkpt lat="43.49943" lon="6.06353">
        <ele>182.9</ele>
        <time>2014-03-26T15:52:30Z</time>
      </trkpt>
      <trkpt lat="43.49937" lon="6.06361">
        <ele>182.9</ele>
        <time>2014-03-26T15:52:36Z</time>
      </trkpt>
      <trkpt lat="43.49932" lon="6.06369">
        <ele>182.6</ele>
        <time>2014-03-26T15:52:42Z</time>
      </trkpt>
      <trkpt lat="43.49924" lon="6.06371">
        <ele>181.7</ele>
        <time>2014-03-26T15:52:50Z</time>
      </trkpt>
      <trkpt lat="43.49923" lon="6.06372">
        <ele>181.2</ele>
        <time>2014-03-26T15:52:51Z</time>
      </trkpt>
      <trkpt lat="43.49922" lon="6.06392">
        <ele>181</ele>
        <time>2014-03-26T15:53:00Z</time>
      </trkpt>
      <trkpt lat="43.49918" lon="6.06402">
        <ele>180.4</ele>
        <time>2014-03-26T15:53:09Z</time>
      </trkpt>
      <trkpt lat="43.49916" lon="6.06413">
        <ele>181.5</ele>
        <time>2014-03-26T15:53:16Z</time>
      </trkpt>
      <trkpt lat="43.49913" lon="6.06423">
        <ele>180.9</ele>
        <time>2014-03-26T15:53:23Z</time>
      </trkpt>
      <trkpt lat="43.4991" lon="6.06434">
        <ele>181.1</ele>
        <time>2014-03-26T15:53:29Z</time>
      </trkpt>
      <trkpt lat="43.49908" lon="6.06445">
        <ele>180.9</ele>
        <time>2014-03-26T15:53:35Z</time>
      </trkpt>
      <trkpt lat="43.49904" lon="6.06454">
        <ele>180.5</ele>
        <time>2014-03-26T15:53:41Z</time>
      </trkpt>
      <trkpt lat="43.499" lon="6.06464">
        <ele>178.8</ele>
        <time>2014-03-26T15:53:50Z</time>
      </trkpt>
      <trkpt lat="43.49899" lon="6.06474">
        <ele>179.9</ele>
        <time>2014-03-26T15:53:54Z</time>
      </trkpt>
      <trkpt lat="43.49898" lon="6.06477">
        <ele>180</ele>
        <time>2014-03-26T15:53:55Z</time>
      </trkpt>
      <trkpt lat="43.49895" lon="6.06496">
        <ele>178.7</ele>
        <time>2014-03-26T15:54:06Z</time>
      </trkpt>
      <trkpt lat="43.4989" lon="6.06505">
        <ele>179.7</ele>
        <time>2014-03-26T15:54:14Z</time>
      </trkpt>
      <trkpt lat="43.49886" lon="6.06516">
        <ele>178.5</ele>
        <time>2014-03-26T15:54:28Z</time>
      </trkpt>
      <trkpt lat="43.49885" lon="6.06526">
        <ele>180.3</ele>
        <time>2014-03-26T15:54:37Z</time>
      </trkpt>
      <trkpt lat="43.49883" lon="6.06536">
        <ele>179.2</ele>
        <time>2014-03-26T15:54:43Z</time>
      </trkpt>
      <trkpt lat="43.4988" lon="6.06548">
        <ele>180.7</ele>
        <time>2014-03-26T15:54:50Z</time>
      </trkpt>
      <trkpt lat="43.49881" lon="6.06559">
        <ele>180.1</ele>
        <time>2014-03-26T15:54:56Z</time>
      </trkpt>
      <trkpt lat="43.49881" lon="6.0656">
        <ele>180.3</ele>
        <time>2014-03-26T15:54:57Z</time>
      </trkpt>
      <trkpt lat="43.49879" lon="6.06583">
        <ele>179.8</ele>
        <time>2014-03-26T15:55:12Z</time>
      </trkpt>
      <trkpt lat="43.49874" lon="6.06592">
        <ele>179.8</ele>
        <time>2014-03-26T15:55:19Z</time>
      </trkpt>
      <trkpt lat="43.49872" lon="6.06603">
        <ele>179.4</ele>
        <time>2014-03-26T15:55:25Z</time>
      </trkpt>
      <trkpt lat="43.49866" lon="6.06611">
        <ele>178.8</ele>
        <time>2014-03-26T15:55:31Z</time>
      </trkpt>
      <trkpt lat="43.4986" lon="6.0662">
        <ele>178.2</ele>
        <time>2014-03-26T15:55:43Z</time>
      </trkpt>
      <trkpt lat="43.49855" lon="6.06629">
        <ele>178</ele>
        <time>2014-03-26T15:55:49Z</time>
      </trkpt>
      <trkpt lat="43.49848" lon="6.06637">
        <ele>177.8</ele>
        <time>2014-03-26T15:56:00Z</time>
      </trkpt>
      <trkpt lat="43.49847" lon="6.06637">
        <ele>177.9</ele>
        <time>2014-03-26T15:56:01Z</time>
      </trkpt>
      <trkpt lat="43.49835" lon="6.06653">
        <ele>175.7</ele>
        <time>2014-03-26T15:56:28Z</time>
      </trkpt>
      <trkpt lat="43.49828" lon="6.0666">
        <ele>175.1</ele>
        <time>2014-03-26T15:56:37Z</time>
      </trkpt>
      <trkpt lat="43.49822" lon="6.06668">
        <ele>174</ele>
        <time>2014-03-26T15:56:44Z</time>
      </trkpt>
      <trkpt lat="43.49814" lon="6.06673">
        <ele>172.9</ele>
        <time>2014-03-26T15:56:51Z</time>
      </trkpt>
      <trkpt lat="43.49808" lon="6.06681">
        <ele>171.6</ele>
        <time>2014-03-26T15:56:58Z</time>
      </trkpt>
      <trkpt lat="43.49801" lon="6.06689">
        <ele>170.8</ele>
        <time>2014-03-26T15:57:06Z</time>
      </trkpt>
      <trkpt lat="43.498" lon="6.0669">
        <ele>171</ele>
        <time>2014-03-26T15:57:07Z</time>
      </trkpt>
      <trkpt lat="43.49786" lon="6.06701">
        <ele>170.6</ele>
        <time>2014-03-26T15:57:22Z</time>
      </trkpt>
      <trkpt lat="43.4978" lon="6.06709">
        <ele>169.2</ele>
        <time>2014-03-26T15:57:35Z</time>
      </trkpt>
      <trkpt lat="43.49773" lon="6.06716">
        <ele>169</ele>
        <time>2014-03-26T15:59:02Z</time>
      </trkpt>
      <trkpt lat="43.49772" lon="6.06716">
        <ele>168.9</ele>
        <time>2014-03-26T15:59:03Z</time>
      </trkpt>
      <trkpt lat="43.49766" lon="6.06706">
        <ele>168.6</ele>
        <time>2014-03-26T16:04:11Z</time>
      </trkpt>
      <trkpt lat="43.4976" lon="6.06686">
        <ele>168.5</ele>
        <time>2014-03-26T16:04:26Z</time>
      </trkpt>
      <trkpt lat="43.49758" lon="6.06675">
        <ele>167.6</ele>
        <time>2014-03-26T16:04:34Z</time>
      </trkpt>
      <trkpt lat="43.49757" lon="6.06664">
        <ele>168</ele>
        <time>2014-03-26T16:04:44Z</time>
      </trkpt>
      <trkpt lat="43.49756" lon="6.06651">
        <ele>168.2</ele>
        <time>2014-03-26T16:04:53Z</time>
      </trkpt>
      <trkpt lat="43.49753" lon="6.0664">
        <ele>167.7</ele>
        <time>2014-03-26T16:05:01Z</time>
      </trkpt>
      <trkpt lat="43.4975" lon="6.06628">
        <ele>168.5</ele>
        <time>2014-03-26T16:05:09Z</time>
      </trkpt>
      <trkpt lat="43.49748" lon="6.06617">
        <ele>167.6</ele>
        <time>2014-03-26T16:05:17Z</time>
      </trkpt>
      <trkpt lat="43.49748" lon="6.06615">
        <ele>167.5</ele>
        <time>2014-03-26T16:05:18Z</time>
      </trkpt>
      <trkpt lat="43.49748" lon="6.06593">
        <ele>166.9</ele>
        <time>2014-03-26T16:05:33Z</time>
      </trkpt>
      <trkpt lat="43.49747" lon="6.06581">
        <ele>165.6</ele>
        <time>2014-03-26T16:05:41Z</time>
      </trkpt>
      <trkpt lat="43.49745" lon="6.0657">
        <ele>166.4</ele>
        <time>2014-03-26T16:05:49Z</time>
      </trkpt>
      <trkpt lat="43.49743" lon="6.06559">
        <ele>167.4</ele>
        <time>2014-03-26T16:05:57Z</time>
      </trkpt>
      <trkpt lat="43.4974" lon="6.06548">
        <ele>166.3</ele>
        <time>2014-03-26T16:06:06Z</time>
      </trkpt>
      <trkpt lat="43.49738" lon="6.06537">
        <ele>167.2</ele>
        <time>2014-03-26T16:06:14Z</time>
      </trkpt>
      <trkpt lat="43.49737" lon="6.06525">
        <ele>166.9</ele>
        <time>2014-03-26T16:06:22Z</time>
      </trkpt>
      <trkpt lat="43.49737" lon="6.06524">
        <ele>166.9</ele>
        <time>2014-03-26T16:06:23Z</time>
      </trkpt>
      <trkpt lat="43.49732" lon="6.06503">
        <ele>167.2</ele>
        <time>2014-03-26T16:06:38Z</time>
      </trkpt>
      <trkpt lat="43.49731" lon="6.06493">
        <ele>166.7</ele>
        <time>2014-03-26T16:06:44Z</time>
      </trkpt>
      <trkpt lat="43.4973" lon="6.06481">
        <ele>167.5</ele>
        <time>2014-03-26T16:06:50Z</time>
      </trkpt>
      <trkpt lat="43.49729" lon="6.0647">
        <ele>167.5</ele>
        <time>2014-03-26T16:06:56Z</time>
      </trkpt>
      <trkpt lat="43.49727" lon="6.0646">
        <ele>168.7</ele>
        <time>2014-03-26T16:07:02Z</time>
      </trkpt>
      <trkpt lat="43.49723" lon="6.0645">
        <ele>168.9</ele>
        <time>2014-03-26T16:07:08Z</time>
      </trkpt>
      <trkpt lat="43.49718" lon="6.0644">
        <ele>168.1</ele>
        <time>2014-03-26T16:07:17Z</time>
      </trkpt>
      <trkpt lat="43.49713" lon="6.0643">
        <ele>169.1</ele>
        <time>2014-03-26T16:07:27Z</time>
      </trkpt>
      <trkpt lat="43.49713" lon="6.06429">
        <ele>169.6</ele>
        <time>2014-03-26T16:07:28Z</time>
      </trkpt>
      <trkpt lat="43.49704" lon="6.0641">
        <ele>169.3</ele>
        <time>2014-03-26T16:07:43Z</time>
      </trkpt>
      <trkpt lat="43.49699" lon="6.064">
        <ele>169.2</ele>
        <time>2014-03-26T16:07:50Z</time>
      </trkpt>
      <trkpt lat="43.49695" lon="6.06391">
        <ele>168.3</ele>
        <time>2014-03-26T16:07:56Z</time>
      </trkpt>
      <trkpt lat="43.4969" lon="6.0638">
        <ele>168.4</ele>
        <time>2014-03-26T16:08:03Z</time>
      </trkpt>
      <trkpt lat="43.49686" lon="6.0637">
        <ele>168.8</ele>
        <time>2014-03-26T16:08:10Z</time>
      </trkpt>
      <trkpt lat="43.49682" lon="6.0636">
        <ele>169.4</ele>
        <time>2014-03-26T16:08:16Z</time>
      </trkpt>
      <trkpt lat="43.49678" lon="6.0635">
        <ele>169</ele>
        <time>2014-03-26T16:08:23Z</time>
      </trkpt>
      <trkpt lat="43.49675" lon="6.0634">
        <ele>169.8</ele>
        <time>2014-03-26T16:08:30Z</time>
      </trkpt>
      <trkpt lat="43.49674" lon="6.06338">
        <ele>169.1</ele>
        <time>2014-03-26T16:08:31Z</time>
      </trkpt>
      <trkpt lat="43.49669" lon="6.06319">
        <ele>170.1</ele>
        <time>2014-03-26T16:08:43Z</time>
      </trkpt>
      <trkpt lat="43.49665" lon="6.06309">
        <ele>170.1</ele>
        <time>2014-03-26T16:08:51Z</time>
      </trkpt>
      <trkpt lat="43.49663" lon="6.06298">
        <ele>170.3</ele>
        <time>2014-03-26T16:08:58Z</time>
      </trkpt>
      <trkpt lat="43.49659" lon="6.06287">
        <ele>169.6</ele>
        <time>2014-03-26T16:09:06Z</time>
      </trkpt>
      <trkpt lat="43.49658" lon="6.06275">
        <ele>170.2</ele>
        <time>2014-03-26T16:09:12Z</time>
      </trkpt>
      <trkpt lat="43.49655" lon="6.06264">
        <ele>170.8</ele>
        <time>2014-03-26T16:09:19Z</time>
      </trkpt>
      <trkpt lat="43.49654" lon="6.06254">
        <ele>169.9</ele>
        <time>2014-03-26T16:09:25Z</time>
      </trkpt>
      <trkpt lat="43.49653" lon="6.06241">
        <ele>169.3</ele>
        <time>2014-03-26T16:09:32Z</time>
      </trkpt>
      <trkpt lat="43.49653" lon="6.0624">
        <ele>169.3</ele>
        <time>2014-03-26T16:09:33Z</time>
      </trkpt>
      <trkpt lat="43.49654" lon="6.06219">
        <ele>169.3</ele>
        <time>2014-03-26T16:09:43Z</time>
      </trkpt>
      <trkpt lat="43.49655" lon="6.06209">
        <ele>170.2</ele>
        <time>2014-03-26T16:09:49Z</time>
      </trkpt>
      <trkpt lat="43.49655" lon="6.06197">
        <ele>170.6</ele>
        <time>2014-03-26T16:09:56Z</time>
      </trkpt>
      <trkpt lat="43.49654" lon="6.06186">
        <ele>170.1</ele>
        <time>2014-03-26T16:10:03Z</time>
      </trkpt>
      <trkpt lat="43.49652" lon="6.06175">
        <ele>170</ele>
        <time>2014-03-26T16:10:10Z</time>
      </trkpt>
      <trkpt lat="43.49651" lon="6.06164">
        <ele>169.5</ele>
        <time>2014-03-26T16:10:16Z</time>
      </trkpt>
      <trkpt lat="43.49647" lon="6.06152">
        <ele>169.1</ele>
        <time>2014-03-26T16:10:23Z</time>
      </trkpt>
      <trkpt lat="43.49645" lon="6.06141">
        <ele>168.9</ele>
        <time>2014-03-26T16:10:30Z</time>
      </trkpt>
      <trkpt lat="43.49643" lon="6.06129">
        <ele>169.2</ele>
        <time>2014-03-26T16:10:37Z</time>
      </trkpt>
      <trkpt lat="43.49642" lon="6.06128">
        <ele>169.5</ele>
        <time>2014-03-26T16:10:38Z</time>
      </trkpt>
      <trkpt lat="43.49637" lon="6.06107">
        <ele>168.5</ele>
        <time>2014-03-26T16:10:51Z</time>
      </trkpt>
      <trkpt lat="43.49634" lon="6.06096">
        <ele>168.4</ele>
        <time>2014-03-26T16:10:58Z</time>
      </trkpt>
      <trkpt lat="43.4963" lon="6.06086">
        <ele>168.7</ele>
        <time>2014-03-26T16:11:04Z</time>
      </trkpt>
      <trkpt lat="43.49626" lon="6.06076">
        <ele>169.3</ele>
        <time>2014-03-26T16:11:10Z</time>
      </trkpt>
      <trkpt lat="43.49623" lon="6.06065">
        <ele>168.6</ele>
        <time>2014-03-26T16:11:16Z</time>
      </trkpt>
      <trkpt lat="43.49619" lon="6.06055">
        <ele>168.4</ele>
        <time>2014-03-26T16:11:22Z</time>
      </trkpt>
      <trkpt lat="43.49613" lon="6.06047">
        <ele>167.9</ele>
        <time>2014-03-26T16:11:29Z</time>
      </trkpt>
      <trkpt lat="43.49611" lon="6.06035">
        <ele>168.3</ele>
        <time>2014-03-26T16:11:36Z</time>
      </trkpt>
      <trkpt lat="43.49609" lon="6.06025">
        <ele>167.8</ele>
        <time>2014-03-26T16:11:43Z</time>
      </trkpt>
      <trkpt lat="43.49608" lon="6.06023">
        <ele>168</ele>
        <time>2014-03-26T16:11:44Z</time>
      </trkpt>
      <trkpt lat="43.49605" lon="6.06002">
        <ele>168.1</ele>
        <time>2014-03-26T16:11:59Z</time>
      </trkpt>
      <trkpt lat="43.49604" lon="6.0599">
        <ele>168.8</ele>
        <time>2014-03-26T16:12:08Z</time>
      </trkpt>
      <trkpt lat="43.49603" lon="6.05978">
        <ele>167.3</ele>
        <time>2014-03-26T16:12:15Z</time>
      </trkpt>
      <trkpt lat="43.49603" lon="6.05966">
        <ele>168.5</ele>
        <time>2014-03-26T16:12:22Z</time>
      </trkpt>
      <trkpt lat="43.49603" lon="6.05954">
        <ele>167.8</ele>
        <time>2014-03-26T16:12:28Z</time>
      </trkpt>
      <trkpt lat="43.49604" lon="6.05944">
        <ele>168.1</ele>
        <time>2014-03-26T16:12:34Z</time>
      </trkpt>
      <trkpt lat="43.49604" lon="6.05933">
        <ele>167.7</ele>
        <time>2014-03-26T16:12:39Z</time>
      </trkpt>
      <trkpt lat="43.49605" lon="6.05921">
        <ele>166.7</ele>
        <time>2014-03-26T16:12:46Z</time>
      </trkpt>
      <trkpt lat="43.49605" lon="6.0592">
        <ele>166.1</ele>
        <time>2014-03-26T16:12:47Z</time>
      </trkpt>
      <trkpt lat="43.49607" lon="6.05899">
        <ele>165.9</ele>
        <time>2014-03-26T16:13:00Z</time>
      </trkpt>
      <trkpt lat="43.49608" lon="6.05888">
        <ele>166.6</ele>
        <time>2014-03-26T16:13:07Z</time>
      </trkpt>
      <trkpt lat="43.4961" lon="6.05877">
        <ele>167.7</ele>
        <time>2014-03-26T16:13:14Z</time>
      </trkpt>
      <trkpt lat="43.49611" lon="6.05866">
        <ele>167.7</ele>
        <time>2014-03-26T16:13:21Z</time>
      </trkpt>
      <trkpt lat="43.49614" lon="6.05855">
        <ele>167.9</ele>
        <time>2014-03-26T16:13:28Z</time>
      </trkpt>
      <trkpt lat="43.49614" lon="6.05844">
        <ele>167.4</ele>
        <time>2014-03-26T16:13:36Z</time>
      </trkpt>
      <trkpt lat="43.49614" lon="6.05833">
        <ele>167</ele>
        <time>2014-03-26T16:13:43Z</time>
      </trkpt>
      <trkpt lat="43.49614" lon="6.05821">
        <ele>166.3</ele>
        <time>2014-03-26T16:13:50Z</time>
      </trkpt>
      <trkpt lat="43.49614" lon="6.0582">
        <ele>167.1</ele>
        <time>2014-03-26T16:13:51Z</time>
      </trkpt>
      <trkpt lat="43.49616" lon="6.05799">
        <ele>166.9</ele>
        <time>2014-03-26T16:14:04Z</time>
      </trkpt>
      <trkpt lat="43.49615" lon="6.05787">
        <ele>167.9</ele>
        <time>2014-03-26T16:14:14Z</time>
      </trkpt>
      <trkpt lat="43.49616" lon="6.05775">
        <ele>167.2</ele>
        <time>2014-03-26T16:14:22Z</time>
      </trkpt>
      <trkpt lat="43.49616" lon="6.05764">
        <ele>167.6</ele>
        <time>2014-03-26T16:14:29Z</time>
      </trkpt>
      <trkpt lat="43.49616" lon="6.05752">
        <ele>167.3</ele>
        <time>2014-03-26T16:14:37Z</time>
      </trkpt>
      <trkpt lat="43.49616" lon="6.05741">
        <ele>167.7</ele>
        <time>2014-03-26T16:14:43Z</time>
      </trkpt>
      <trkpt lat="43.49617" lon="6.0573">
        <ele>167.4</ele>
        <time>2014-03-26T16:14:49Z</time>
      </trkpt>
      <trkpt lat="43.49618" lon="6.05719">
        <ele>167.8</ele>
        <time>2014-03-26T16:14:55Z</time>
      </trkpt>
      <trkpt lat="43.49619" lon="6.05717">
        <ele>167.8</ele>
        <time>2014-03-26T16:14:56Z</time>
      </trkpt>
      <trkpt lat="43.49625" lon="6.05698">
        <ele>167.7</ele>
        <time>2014-03-26T16:15:11Z</time>
      </trkpt>
      <trkpt lat="43.4963" lon="6.0569">
        <ele>168.6</ele>
        <time>2014-03-26T16:15:16Z</time>
      </trkpt>
      <trkpt lat="43.49633" lon="6.05679">
        <ele>168.1</ele>
        <time>2014-03-26T16:15:22Z</time>
      </trkpt>
      <trkpt lat="43.49635" lon="6.05669">
        <ele>167.9</ele>
        <time>2014-03-26T16:15:28Z</time>
      </trkpt>
      <trkpt lat="43.4964" lon="6.05659">
        <ele>169.3</ele>
        <time>2014-03-26T16:15:35Z</time>
      </trkpt>
      <trkpt lat="43.49647" lon="6.05651">
        <ele>168.6</ele>
        <time>2014-03-26T16:15:45Z</time>
      </trkpt>
      <trkpt lat="43.49651" lon="6.05641">
        <ele>168.3</ele>
        <time>2014-03-26T16:15:58Z</time>
      </trkpt>
      <trkpt lat="43.49652" lon="6.0564">
        <ele>168.7</ele>
        <time>2014-03-26T16:15:59Z</time>
      </trkpt>
      <trkpt lat="43.49655" lon="6.05618">
        <ele>168</ele>
        <time>2014-03-26T16:16:11Z</time>
      </trkpt>
      <trkpt lat="43.49658" lon="6.05607">
        <ele>168.1</ele>
        <time>2014-03-26T16:16:20Z</time>
      </trkpt>
      <trkpt lat="43.49654" lon="6.05598">
        <ele>167.1</ele>
        <time>2014-03-26T16:16:52Z</time>
      </trkpt>
      <trkpt lat="43.49653" lon="6.05586">
        <ele>166.9</ele>
        <time>2014-03-26T16:17:03Z</time>
      </trkpt>
      <trkpt lat="43.49653" lon="6.05585">
        <ele>166.9</ele>
        <time>2014-03-26T16:17:04Z</time>
      </trkpt>
    </trkseg>
  </trk>
</gpx>